<?xml version="1.0" encoding="UTF-8" standalone="no" ?>
<gpx xmlns="http://www.topografix.com/GPX/1/1" xmlns:xsi="http://www.w3.org/2001/XMLSchema-instance" xsi:schemaLocation="http://www.topografix.com/GPX/1/1 http://www.topografix.com/GPX/1/1/gpx.xsd" version="1.1" creator="VisuGPX - https://www.visugpx.com">
  <metadata>
    <name>St Cyr les vignes à Salvizinet</name>
    <desc><![CDATA[Pour le journée des retrouvailles chez Nicole]]></desc>
  </metadata>
  <trk>
    <name><![CDATA[St Cyr Salvizinet]]></name>
    <trkseg>
      <trkpt lat="45.68025" lon="4.3115">
        <ele>451</ele>
        <time>2012-03-25T08:05:05Z</time>
      </trkpt>
      <trkpt lat="45.68179" lon="4.31354">
        <ele>451</ele>
        <time>2012-03-25T08:05:07Z</time>
      </trkpt>
      <trkpt lat="45.68222" lon="4.31741">
        <ele>444</ele>
        <time>2012-03-25T08:05:17Z</time>
      </trkpt>
      <trkpt lat="45.68274" lon="4.31859">
        <ele>452</ele>
        <time>2012-03-25T08:05:18Z</time>
      </trkpt>
      <trkpt lat="45.6833" lon="4.31976">
        <ele>447</ele>
        <time>2012-03-25T08:05:35Z</time>
      </trkpt>
      <trkpt lat="45.68465" lon="4.32">
        <ele>451</ele>
        <time>2012-03-25T08:05:36Z</time>
      </trkpt>
      <trkpt lat="45.68478" lon="4.31981">
        <ele>455</ele>
        <time>2012-03-25T08:05:43Z</time>
      </trkpt>
      <trkpt lat="45.68612" lon="4.31807">
        <ele>460</ele>
        <time>2012-03-25T08:05:45Z</time>
      </trkpt>
      <trkpt lat="45.68631" lon="4.31756">
        <ele>464</ele>
        <time>2012-03-25T08:05:47Z</time>
      </trkpt>
      <trkpt lat="45.68746" lon="4.31869">
        <ele>468</ele>
        <time>2012-03-25T08:05:49Z</time>
      </trkpt>
      <trkpt lat="45.68946" lon="4.31735">
        <ele>472</ele>
        <time>2012-03-25T08:05:50Z</time>
      </trkpt>
      <trkpt lat="45.68991" lon="4.31743">
        <ele>465</ele>
        <time>2012-03-25T08:05:51Z</time>
      </trkpt>
      <trkpt lat="45.69179" lon="4.31576">
        <ele>472</ele>
        <time>2012-03-25T08:05:52Z</time>
      </trkpt>
      <trkpt lat="45.69085" lon="4.31259">
        <ele>476</ele>
        <time>2012-03-25T08:05:54Z</time>
      </trkpt>
      <trkpt lat="45.69199" lon="4.30954">
        <ele>479</ele>
        <time>2012-03-25T08:05:57Z</time>
      </trkpt>
      <trkpt lat="45.69209" lon="4.30884">
        <ele>483</ele>
        <time>2012-03-25T08:06:00Z</time>
      </trkpt>
      <trkpt lat="45.69346" lon="4.31024">
        <ele>486</ele>
        <time>2012-03-25T08:06:03Z</time>
      </trkpt>
      <trkpt lat="45.69375" lon="4.31166">
        <ele>489</ele>
        <time>2012-03-25T08:06:05Z</time>
      </trkpt>
      <trkpt lat="45.69424" lon="4.31174">
        <ele>493</ele>
        <time>2012-03-25T08:06:09Z</time>
      </trkpt>
      <trkpt lat="45.6935" lon="4.313">
        <ele>494</ele>
        <time>2012-03-25T08:06:11Z</time>
      </trkpt>
      <trkpt lat="45.69475" lon="4.31362">
        <ele>497</ele>
        <time>2012-03-25T08:06:14Z</time>
      </trkpt>
      <trkpt lat="45.69522" lon="4.31473">
        <ele>500</ele>
        <time>2012-03-25T08:06:18Z</time>
      </trkpt>
      <trkpt lat="45.69553" lon="4.31513">
        <ele>503</ele>
        <time>2012-03-25T08:06:24Z</time>
      </trkpt>
      <trkpt lat="45.69603" lon="4.31495">
        <ele>506</ele>
        <time>2012-03-25T08:06:31Z</time>
      </trkpt>
      <trkpt lat="45.6957" lon="4.31591">
        <ele>509</ele>
        <time>2012-03-25T08:06:38Z</time>
      </trkpt>
      <trkpt lat="45.69552" lon="4.3184">
        <ele>512</ele>
        <time>2012-03-25T08:06:53Z</time>
      </trkpt>
      <trkpt lat="45.69576" lon="4.32008">
        <ele>513</ele>
        <time>2012-03-25T08:07:05Z</time>
      </trkpt>
      <trkpt lat="45.69523" lon="4.32469">
        <ele>513</ele>
        <time>2012-03-25T08:07:10Z</time>
      </trkpt>
      <trkpt lat="45.69592" lon="4.32638">
        <ele>512</ele>
        <time>2012-03-25T08:07:26Z</time>
      </trkpt>
      <trkpt lat="45.69639" lon="4.3272">
        <ele>490</ele>
        <time>2012-03-25T08:12:00Z</time>
      </trkpt>
      <trkpt lat="45.69722" lon="4.32739">
        <ele>490</ele>
        <time>2012-03-25T08:12:12Z</time>
      </trkpt>
      <trkpt lat="45.69972" lon="4.32687">
        <ele>491</ele>
        <time>2012-03-25T08:12:23Z</time>
      </trkpt>
      <trkpt lat="45.70047" lon="4.3278">
        <ele>495</ele>
        <time>2012-03-25T08:12:38Z</time>
      </trkpt>
      <trkpt lat="45.70105" lon="4.32836">
        <ele>498</ele>
        <time>2012-03-25T08:12:54Z</time>
      </trkpt>
      <trkpt lat="45.70163" lon="4.32989">
        <ele>501</ele>
        <time>2012-03-25T08:13:09Z</time>
      </trkpt>
      <trkpt lat="45.70306" lon="4.32914">
        <ele>502</ele>
        <time>2012-03-25T08:13:13Z</time>
      </trkpt>
      <trkpt lat="45.70399" lon="4.32853">
        <ele>506</ele>
        <time>2012-03-25T08:13:19Z</time>
      </trkpt>
      <trkpt lat="45.70457" lon="4.3301">
        <ele>506</ele>
        <time>2012-03-25T08:13:20Z</time>
      </trkpt>
      <trkpt lat="45.70513" lon="4.33018">
        <ele>509</ele>
        <time>2012-03-25T08:13:30Z</time>
      </trkpt>
      <trkpt lat="45.70607" lon="4.33073">
        <ele>510</ele>
        <time>2012-03-25T08:13:34Z</time>
      </trkpt>
      <trkpt lat="45.70717" lon="4.3318">
        <ele>511</ele>
        <time>2012-03-25T08:13:39Z</time>
      </trkpt>
      <trkpt lat="45.70698" lon="4.33009">
        <ele>514</ele>
        <time>2012-03-25T08:13:49Z</time>
      </trkpt>
      <trkpt lat="45.70751" lon="4.33055">
        <ele>515</ele>
        <time>2012-03-25T08:13:50Z</time>
      </trkpt>
      <trkpt lat="45.70763" lon="4.33024">
        <ele>517</ele>
        <time>2012-03-25T08:13:55Z</time>
      </trkpt>
      <trkpt lat="45.70799" lon="4.33019">
        <ele>520</ele>
        <time>2012-03-25T08:14:05Z</time>
      </trkpt>
      <trkpt lat="45.70814" lon="4.33055">
        <ele>521</ele>
        <time>2012-03-25T08:14:20Z</time>
      </trkpt>
      <trkpt lat="45.70904" lon="4.33048">
        <ele>524</ele>
        <time>2012-03-25T08:14:39Z</time>
      </trkpt>
      <trkpt lat="45.70963" lon="4.33041">
        <ele>525</ele>
        <time>2012-03-25T08:14:42Z</time>
      </trkpt>
      <trkpt lat="45.70985" lon="4.33051">
        <ele>528</ele>
        <time>2012-03-25T08:14:51Z</time>
      </trkpt>
      <trkpt lat="45.7109" lon="4.33106">
        <ele>530</ele>
        <time>2012-03-25T08:15:05Z</time>
      </trkpt>
      <trkpt lat="45.71128" lon="4.33217">
        <ele>533</ele>
        <time>2012-03-25T08:15:19Z</time>
      </trkpt>
      <trkpt lat="45.71273" lon="4.33302">
        <ele>535</ele>
        <time>2012-03-25T08:15:26Z</time>
      </trkpt>
      <trkpt lat="45.71319" lon="4.33372">
        <ele>535</ele>
        <time>2012-03-25T08:15:32Z</time>
      </trkpt>
      <trkpt lat="45.71446" lon="4.33428">
        <ele>538</ele>
        <time>2012-03-25T08:15:52Z</time>
      </trkpt>
      <trkpt lat="45.71518" lon="4.33449">
        <ele>540</ele>
        <time>2012-03-25T08:16:04Z</time>
      </trkpt>
      <trkpt lat="45.71589" lon="4.33519">
        <ele>543</ele>
        <time>2012-03-25T08:16:19Z</time>
      </trkpt>
      <trkpt lat="45.71739" lon="4.33535">
        <ele>545</ele>
        <time>2012-03-25T08:16:26Z</time>
      </trkpt>
      <trkpt lat="45.71774" lon="4.33603">
        <ele>544</ele>
        <time>2012-03-25T08:16:30Z</time>
      </trkpt>
      <trkpt lat="45.71894" lon="4.33698">
        <ele>548</ele>
        <time>2012-03-25T08:16:46Z</time>
      </trkpt>
      <trkpt lat="45.71903" lon="4.3382">
        <ele>550</ele>
        <time>2012-03-25T08:16:59Z</time>
      </trkpt>
      <trkpt lat="45.71911" lon="4.33974">
        <ele>551</ele>
        <time>2012-03-25T08:17:10Z</time>
      </trkpt>
      <trkpt lat="45.71939" lon="4.33987">
        <ele>552</ele>
        <time>2012-03-25T08:17:24Z</time>
      </trkpt>
      <trkpt lat="45.71962" lon="4.34005">
        <ele>552</ele>
        <time>2012-03-25T08:17:38Z</time>
      </trkpt>
      <trkpt lat="45.71985" lon="4.34013">
        <ele>552</ele>
        <time>2012-03-25T08:17:52Z</time>
      </trkpt>
      <trkpt lat="45.72003" lon="4.33994">
        <ele>552</ele>
        <time>2012-03-25T08:18:06Z</time>
      </trkpt>
      <trkpt lat="45.72004" lon="4.3399">
        <ele>551</ele>
        <time>2012-03-25T08:18:21Z</time>
      </trkpt>
      <trkpt lat="45.72004" lon="4.3399">
        <ele>551</ele>
        <time>2012-03-25T08:18:43Z</time>
      </trkpt>
      <trkpt lat="45.72004" lon="4.3399">
        <ele>551</ele>
        <time>2012-03-25T08:18:54Z</time>
      </trkpt>
      <trkpt lat="45.72005" lon="4.3399">
        <ele>551</ele>
        <time>2012-03-25T08:18:59Z</time>
      </trkpt>
      <trkpt lat="45.72007" lon="4.33989">
        <ele>550</ele>
        <time>2012-03-25T08:19:01Z</time>
      </trkpt>
      <trkpt lat="45.72007" lon="4.33992">
        <ele>550</ele>
        <time>2012-03-25T08:19:04Z</time>
      </trkpt>
      <trkpt lat="45.71999" lon="4.34005">
        <ele>550</ele>
        <time>2012-03-25T08:19:13Z</time>
      </trkpt>
      <trkpt lat="45.71996" lon="4.34011">
        <ele>550</ele>
        <time>2012-03-25T08:19:27Z</time>
      </trkpt>
      <trkpt lat="45.71995" lon="4.34">
        <ele>550</ele>
        <time>2012-03-25T08:23:32Z</time>
      </trkpt>
      <trkpt lat="45.71996" lon="4.33997">
        <ele>551</ele>
        <time>2012-03-25T08:23:34Z</time>
      </trkpt>
      <trkpt lat="45.72007" lon="4.33999">
        <ele>550</ele>
        <time>2012-03-25T08:23:48Z</time>
      </trkpt>
      <trkpt lat="45.72002" lon="4.34006">
        <ele>550</ele>
        <time>2012-03-25T08:24:04Z</time>
      </trkpt>
      <trkpt lat="45.72" lon="4.34006">
        <ele>551</ele>
        <time>2012-03-25T08:24:12Z</time>
      </trkpt>
      <trkpt lat="45.72" lon="4.34012">
        <ele>551</ele>
        <time>2012-03-25T08:24:16Z</time>
      </trkpt>
      <trkpt lat="45.72003" lon="4.34016">
        <ele>551</ele>
        <time>2012-03-25T08:24:20Z</time>
      </trkpt>
      <trkpt lat="45.72012" lon="4.34">
        <ele>551</ele>
        <time>2012-03-25T08:24:39Z</time>
      </trkpt>
      <trkpt lat="45.72012" lon="4.34">
        <ele>551</ele>
        <time>2012-03-25T08:25:06Z</time>
      </trkpt>
      <trkpt lat="45.72011" lon="4.34">
        <ele>552</ele>
        <time>2012-03-25T08:25:34Z</time>
      </trkpt>
      <trkpt lat="45.7202" lon="4.34012">
        <ele>552</ele>
        <time>2012-03-25T08:25:53Z</time>
      </trkpt>
      <trkpt lat="45.72026" lon="4.34031">
        <ele>552</ele>
        <time>2012-03-25T08:26:06Z</time>
      </trkpt>
      <trkpt lat="45.72028" lon="4.34045">
        <ele>551</ele>
        <time>2012-03-25T08:26:20Z</time>
      </trkpt>
      <trkpt lat="45.72037" lon="4.34053">
        <ele>550</ele>
        <time>2012-03-25T08:26:28Z</time>
      </trkpt>
      <trkpt lat="45.72048" lon="4.34057">
        <ele>550</ele>
        <time>2012-03-25T08:26:34Z</time>
      </trkpt>
      <trkpt lat="45.72062" lon="4.34082">
        <ele>549</ele>
        <time>2012-03-25T08:26:51Z</time>
      </trkpt>
      <trkpt lat="45.72064" lon="4.34085">
        <ele>549</ele>
        <time>2012-03-25T08:26:54Z</time>
      </trkpt>
      <trkpt lat="45.72068" lon="4.34092">
        <ele>548</ele>
        <time>2012-03-25T08:26:59Z</time>
      </trkpt>
      <trkpt lat="45.72073" lon="4.34098">
        <ele>547</ele>
        <time>2012-03-25T08:27:03Z</time>
      </trkpt>
      <trkpt lat="45.72084" lon="4.34108">
        <ele>547</ele>
        <time>2012-03-25T08:27:12Z</time>
      </trkpt>
      <trkpt lat="45.72089" lon="4.34114">
        <ele>546</ele>
        <time>2012-03-25T08:27:16Z</time>
      </trkpt>
      <trkpt lat="45.72105" lon="4.34141">
        <ele>544</ele>
        <time>2012-03-25T08:27:31Z</time>
      </trkpt>
      <trkpt lat="45.72115" lon="4.34163">
        <ele>544</ele>
        <time>2012-03-25T08:27:43Z</time>
      </trkpt>
      <trkpt lat="45.72117" lon="4.34165">
        <ele>543</ele>
        <time>2012-03-25T08:27:45Z</time>
      </trkpt>
      <trkpt lat="45.7213" lon="4.34189">
        <ele>543</ele>
        <time>2012-03-25T08:27:59Z</time>
      </trkpt>
      <trkpt lat="45.72141" lon="4.34211">
        <ele>543</ele>
        <time>2012-03-25T08:28:10Z</time>
      </trkpt>
      <trkpt lat="45.72156" lon="4.34239">
        <ele>543</ele>
        <time>2012-03-25T08:28:24Z</time>
      </trkpt>
      <trkpt lat="45.72178" lon="4.34267">
        <ele>542</ele>
        <time>2012-03-25T08:28:41Z</time>
      </trkpt>
      <trkpt lat="45.722" lon="4.34286">
        <ele>542</ele>
        <time>2012-03-25T08:28:56Z</time>
      </trkpt>
      <trkpt lat="45.72223" lon="4.34316">
        <ele>541</ele>
        <time>2012-03-25T08:29:12Z</time>
      </trkpt>
      <trkpt lat="45.7223" lon="4.34326">
        <ele>541</ele>
        <time>2012-03-25T08:29:18Z</time>
      </trkpt>
      <trkpt lat="45.72246" lon="4.34354">
        <ele>542</ele>
        <time>2012-03-25T08:29:33Z</time>
      </trkpt>
      <trkpt lat="45.72254" lon="4.34363">
        <ele>539</ele>
        <time>2012-03-25T08:29:47Z</time>
      </trkpt>
      <trkpt lat="45.72255" lon="4.34359">
        <ele>538</ele>
        <time>2012-03-25T08:29:51Z</time>
      </trkpt>
      <trkpt lat="45.72263" lon="4.34341">
        <ele>537</ele>
        <time>2012-03-25T08:30:07Z</time>
      </trkpt>
      <trkpt lat="45.7227" lon="4.34327">
        <ele>533</ele>
        <time>2012-03-25T08:30:22Z</time>
      </trkpt>
      <trkpt lat="45.72282" lon="4.34311">
        <ele>531</ele>
        <time>2012-03-25T08:30:34Z</time>
      </trkpt>
      <trkpt lat="45.72295" lon="4.34294">
        <ele>529</ele>
        <time>2012-03-25T08:30:51Z</time>
      </trkpt>
      <trkpt lat="45.72305" lon="4.34279">
        <ele>527</ele>
        <time>2012-03-25T08:31:05Z</time>
      </trkpt>
      <trkpt lat="45.7232" lon="4.34268">
        <ele>525</ele>
        <time>2012-03-25T08:31:19Z</time>
      </trkpt>
      <trkpt lat="45.72331" lon="4.34261">
        <ele>523</ele>
        <time>2012-03-25T08:31:32Z</time>
      </trkpt>
      <trkpt lat="45.72342" lon="4.34262">
        <ele>522</ele>
        <time>2012-03-25T08:31:45Z</time>
      </trkpt>
      <trkpt lat="45.7235" lon="4.34256">
        <ele>521</ele>
        <time>2012-03-25T08:31:50Z</time>
      </trkpt>
      <trkpt lat="45.72375" lon="4.34229">
        <ele>518</ele>
        <time>2012-03-25T08:32:04Z</time>
      </trkpt>
      <trkpt lat="45.72403" lon="4.34218">
        <ele>516</ele>
        <time>2012-03-25T08:32:20Z</time>
      </trkpt>
      <trkpt lat="45.72424" lon="4.34204">
        <ele>513</ele>
        <time>2012-03-25T08:32:35Z</time>
      </trkpt>
      <trkpt lat="45.72443" lon="4.34188">
        <ele>511</ele>
        <time>2012-03-25T08:32:50Z</time>
      </trkpt>
      <trkpt lat="45.72462" lon="4.3416">
        <ele>508</ele>
        <time>2012-03-25T08:33:06Z</time>
      </trkpt>
      <trkpt lat="45.72472" lon="4.34141">
        <ele>508</ele>
        <time>2012-03-25T08:33:19Z</time>
      </trkpt>
      <trkpt lat="45.72486" lon="4.34112">
        <ele>505</ele>
        <time>2012-03-25T08:33:34Z</time>
      </trkpt>
      <trkpt lat="45.72494" lon="4.341">
        <ele>501</ele>
        <time>2012-03-25T08:33:47Z</time>
      </trkpt>
      <trkpt lat="45.72503" lon="4.3409">
        <ele>498</ele>
        <time>2012-03-25T08:34:01Z</time>
      </trkpt>
      <trkpt lat="45.7252" lon="4.34084">
        <ele>496</ele>
        <time>2012-03-25T08:34:14Z</time>
      </trkpt>
      <trkpt lat="45.72527" lon="4.34081">
        <ele>495</ele>
        <time>2012-03-25T08:34:17Z</time>
      </trkpt>
      <trkpt lat="45.72539" lon="4.34078">
        <ele>495</ele>
        <time>2012-03-25T08:34:22Z</time>
      </trkpt>
      <trkpt lat="45.72555" lon="4.34068">
        <ele>492</ele>
        <time>2012-03-25T08:34:35Z</time>
      </trkpt>
      <trkpt lat="45.72583" lon="4.34046">
        <ele>489</ele>
        <time>2012-03-25T08:34:50Z</time>
      </trkpt>
      <trkpt lat="45.72583" lon="4.34045">
        <ele>489</ele>
        <time>2012-03-25T08:34:51Z</time>
      </trkpt>
      <trkpt lat="45.72604" lon="4.34034">
        <ele>486</ele>
        <time>2012-03-25T08:35:03Z</time>
      </trkpt>
      <trkpt lat="45.72619" lon="4.34025">
        <ele>483</ele>
        <time>2012-03-25T08:35:12Z</time>
      </trkpt>
      <trkpt lat="45.7264" lon="4.34023">
        <ele>481</ele>
        <time>2012-03-25T08:35:24Z</time>
      </trkpt>
      <trkpt lat="45.72671" lon="4.34021">
        <ele>479</ele>
        <time>2012-03-25T08:35:43Z</time>
      </trkpt>
      <trkpt lat="45.72693" lon="4.34007">
        <ele>479</ele>
        <time>2012-03-25T08:36:02Z</time>
      </trkpt>
      <trkpt lat="45.72717" lon="4.33992">
        <ele>477</ele>
        <time>2012-03-25T08:36:20Z</time>
      </trkpt>
      <trkpt lat="45.72724" lon="4.3398">
        <ele>477</ele>
        <time>2012-03-25T08:36:30Z</time>
      </trkpt>
      <trkpt lat="45.7273" lon="4.33965">
        <ele>477</ele>
        <time>2012-03-25T08:36:40Z</time>
      </trkpt>
      <trkpt lat="45.72734" lon="4.33953">
        <ele>477</ele>
        <time>2012-03-25T08:36:48Z</time>
      </trkpt>
      <trkpt lat="45.72752" lon="4.33933">
        <ele>476</ele>
        <time>2012-03-25T08:36:59Z</time>
      </trkpt>
      <trkpt lat="45.72769" lon="4.33927">
        <ele>476</ele>
        <time>2012-03-25T08:37:09Z</time>
      </trkpt>
      <trkpt lat="45.72808" lon="4.33918">
        <ele>476</ele>
        <time>2012-03-25T08:37:28Z</time>
      </trkpt>
      <trkpt lat="45.72809" lon="4.33917">
        <ele>476</ele>
        <time>2012-03-25T08:37:29Z</time>
      </trkpt>
      <trkpt lat="45.72827" lon="4.3391">
        <ele>476</ele>
        <time>2012-03-25T08:37:43Z</time>
      </trkpt>
      <trkpt lat="45.72835" lon="4.33905">
        <ele>476</ele>
        <time>2012-03-25T08:37:49Z</time>
      </trkpt>
      <trkpt lat="45.72854" lon="4.33894">
        <ele>475</ele>
        <time>2012-03-25T08:38:05Z</time>
      </trkpt>
      <trkpt lat="45.72867" lon="4.33881">
        <ele>474</ele>
        <time>2012-03-25T08:38:22Z</time>
      </trkpt>
      <trkpt lat="45.72879" lon="4.3387">
        <ele>472</ele>
        <time>2012-03-25T08:38:37Z</time>
      </trkpt>
      <trkpt lat="45.72897" lon="4.33848">
        <ele>469</ele>
        <time>2012-03-25T08:38:54Z</time>
      </trkpt>
      <trkpt lat="45.72908" lon="4.3384">
        <ele>467</ele>
        <time>2012-03-25T08:39:07Z</time>
      </trkpt>
      <trkpt lat="45.72914" lon="4.33834">
        <ele>464</ele>
        <time>2012-03-25T08:39:19Z</time>
      </trkpt>
      <trkpt lat="45.72917" lon="4.33829">
        <ele>461</ele>
        <time>2012-03-25T08:39:27Z</time>
      </trkpt>
      <trkpt lat="45.72924" lon="4.33813">
        <ele>458</ele>
        <time>2012-03-25T08:39:40Z</time>
      </trkpt>
      <trkpt lat="45.72926" lon="4.33812">
        <ele>455</ele>
        <time>2012-03-25T08:39:52Z</time>
      </trkpt>
      <trkpt lat="45.72928" lon="4.33812">
        <ele>452</ele>
        <time>2012-03-25T08:40:05Z</time>
      </trkpt>
      <trkpt lat="45.72928" lon="4.33812">
        <ele>449</ele>
        <time>2012-03-25T08:40:16Z</time>
      </trkpt>
      <trkpt lat="45.72933" lon="4.33807">
        <ele>449</ele>
        <time>2012-03-25T08:40:18Z</time>
      </trkpt>
      <trkpt lat="45.72959" lon="4.33817">
        <ele>446</ele>
        <time>2012-03-25T08:40:31Z</time>
      </trkpt>
      <trkpt lat="45.73019" lon="4.33837">
        <ele>444</ele>
        <time>2012-03-25T08:40:48Z</time>
      </trkpt>
      <trkpt lat="45.73057" lon="4.33848">
        <ele>445</ele>
        <time>2012-03-25T08:41:02Z</time>
      </trkpt>
      <trkpt lat="45.73087" lon="4.33866">
        <ele>445</ele>
        <time>2012-03-25T08:41:17Z</time>
      </trkpt>
      <trkpt lat="45.73097" lon="4.33871">
        <ele>445</ele>
        <time>2012-03-25T08:41:22Z</time>
      </trkpt>
      <trkpt lat="45.73151" lon="4.33853">
        <ele>447</ele>
        <time>2012-03-25T08:41:45Z</time>
      </trkpt>
      <trkpt lat="45.7318" lon="4.33842">
        <ele>449</ele>
        <time>2012-03-25T08:42:03Z</time>
      </trkpt>
      <trkpt lat="45.73202" lon="4.33842">
        <ele>452</ele>
        <time>2012-03-25T08:42:20Z</time>
      </trkpt>
      <trkpt lat="45.73226" lon="4.33831">
        <ele>455</ele>
        <time>2012-03-25T08:42:35Z</time>
      </trkpt>
      <trkpt lat="45.73246" lon="4.33805">
        <ele>457</ele>
        <time>2012-03-25T08:42:53Z</time>
      </trkpt>
      <trkpt lat="45.73259" lon="4.3378">
        <ele>458</ele>
        <time>2012-03-25T08:43:09Z</time>
      </trkpt>
      <trkpt lat="45.73274" lon="4.33744">
        <ele>460</ele>
        <time>2012-03-25T08:43:27Z</time>
      </trkpt>
      <trkpt lat="45.73288" lon="4.33711">
        <ele>461</ele>
        <time>2012-03-25T08:43:44Z</time>
      </trkpt>
      <trkpt lat="45.73303" lon="4.33683">
        <ele>462</ele>
        <time>2012-03-25T08:44:00Z</time>
      </trkpt>
      <trkpt lat="45.73308" lon="4.33675">
        <ele>462</ele>
        <time>2012-03-25T08:44:05Z</time>
      </trkpt>
      <trkpt lat="45.7331" lon="4.33674">
        <ele>462</ele>
        <time>2012-03-25T08:44:07Z</time>
      </trkpt>
      <trkpt lat="45.73325" lon="4.33644">
        <ele>464</ele>
        <time>2012-03-25T08:44:24Z</time>
      </trkpt>
      <trkpt lat="45.73344" lon="4.33613">
        <ele>467</ele>
        <time>2012-03-25T08:44:39Z</time>
      </trkpt>
      <trkpt lat="45.73373" lon="4.33597">
        <ele>470</ele>
        <time>2012-03-25T08:44:57Z</time>
      </trkpt>
      <trkpt lat="45.73394" lon="4.33571">
        <ele>471</ele>
        <time>2012-03-25T08:45:05Z</time>
      </trkpt>
      <trkpt lat="45.73401" lon="4.33562">
        <ele>471</ele>
        <time>2012-03-25T08:45:07Z</time>
      </trkpt>
      <trkpt lat="45.73404" lon="4.33558">
        <ele>470</ele>
        <time>2012-03-25T08:45:08Z</time>
      </trkpt>
      <trkpt lat="45.73408" lon="4.33554">
        <ele>471</ele>
        <time>2012-03-25T08:45:09Z</time>
      </trkpt>
      <trkpt lat="45.73412" lon="4.33549">
        <ele>472</ele>
        <time>2012-03-25T08:45:10Z</time>
      </trkpt>
      <trkpt lat="45.73416" lon="4.33544">
        <ele>472</ele>
        <time>2012-03-25T08:45:11Z</time>
      </trkpt>
      <trkpt lat="45.73419" lon="4.33539">
        <ele>472</ele>
        <time>2012-03-25T08:45:12Z</time>
      </trkpt>
      <trkpt lat="45.73421" lon="4.33535">
        <ele>472</ele>
        <time>2012-03-25T08:45:13Z</time>
      </trkpt>
      <trkpt lat="45.73424" lon="4.3353">
        <ele>472</ele>
        <time>2012-03-25T08:45:14Z</time>
      </trkpt>
      <trkpt lat="45.73441" lon="4.335">
        <ele>473</ele>
        <time>2012-03-25T08:45:24Z</time>
      </trkpt>
      <trkpt lat="45.73443" lon="4.33499">
        <ele>472</ele>
        <time>2012-03-25T08:45:25Z</time>
      </trkpt>
      <trkpt lat="45.73445" lon="4.33496">
        <ele>472</ele>
        <time>2012-03-25T08:45:26Z</time>
      </trkpt>
      <trkpt lat="45.73448" lon="4.33491">
        <ele>472</ele>
        <time>2012-03-25T08:45:27Z</time>
      </trkpt>
      <trkpt lat="45.73451" lon="4.33486">
        <ele>473</ele>
        <time>2012-03-25T08:45:28Z</time>
      </trkpt>
      <trkpt lat="45.73468" lon="4.33464">
        <ele>470</ele>
        <time>2012-03-25T08:45:32Z</time>
      </trkpt>
      <trkpt lat="45.73474" lon="4.3346">
        <ele>471</ele>
        <time>2012-03-25T08:45:33Z</time>
      </trkpt>
      <trkpt lat="45.73502" lon="4.33446">
        <ele>471</ele>
        <time>2012-03-25T08:45:37Z</time>
      </trkpt>
      <trkpt lat="45.73522" lon="4.33436">
        <ele>472</ele>
        <time>2012-03-25T08:45:40Z</time>
      </trkpt>
      <trkpt lat="45.73527" lon="4.33434">
        <ele>473</ele>
        <time>2012-03-25T08:45:41Z</time>
      </trkpt>
      <trkpt lat="45.73532" lon="4.33433">
        <ele>473</ele>
        <time>2012-03-25T08:45:42Z</time>
      </trkpt>
      <trkpt lat="45.73546" lon="4.3343">
        <ele>475</ele>
        <time>2012-03-25T08:45:45Z</time>
      </trkpt>
      <trkpt lat="45.7356" lon="4.33403">
        <ele>477</ele>
        <time>2012-03-25T08:45:49Z</time>
      </trkpt>
      <trkpt lat="45.73568" lon="4.33387">
        <ele>478</ele>
        <time>2012-03-25T08:45:51Z</time>
      </trkpt>
      <trkpt lat="45.73573" lon="4.33381">
        <ele>479</ele>
        <time>2012-03-25T08:45:52Z</time>
      </trkpt>
      <trkpt lat="45.73577" lon="4.33375">
        <ele>478</ele>
        <time>2012-03-25T08:45:53Z</time>
      </trkpt>
      <trkpt lat="45.73585" lon="4.3336">
        <ele>480</ele>
        <time>2012-03-25T08:45:55Z</time>
      </trkpt>
      <trkpt lat="45.73589" lon="4.33353">
        <ele>480</ele>
        <time>2012-03-25T08:45:56Z</time>
      </trkpt>
      <trkpt lat="45.73592" lon="4.33347">
        <ele>481</ele>
        <time>2012-03-25T08:45:57Z</time>
      </trkpt>
      <trkpt lat="45.73595" lon="4.33342">
        <ele>482</ele>
        <time>2012-03-25T08:45:58Z</time>
      </trkpt>
      <trkpt lat="45.73597" lon="4.33338">
        <ele>483</ele>
        <time>2012-03-25T08:45:59Z</time>
      </trkpt>
      <trkpt lat="45.73599" lon="4.33333">
        <ele>483</ele>
        <time>2012-03-25T08:46:00Z</time>
      </trkpt>
      <trkpt lat="45.73602" lon="4.33327">
        <ele>483</ele>
        <time>2012-03-25T08:46:01Z</time>
      </trkpt>
      <trkpt lat="45.73616" lon="4.33303">
        <ele>484</ele>
        <time>2012-03-25T08:46:05Z</time>
      </trkpt>
      <trkpt lat="45.73621" lon="4.33299">
        <ele>485</ele>
        <time>2012-03-25T08:46:06Z</time>
      </trkpt>
      <trkpt lat="45.73626" lon="4.33295">
        <ele>485</ele>
        <time>2012-03-25T08:46:07Z</time>
      </trkpt>
      <trkpt lat="45.73631" lon="4.3329">
        <ele>486</ele>
        <time>2012-03-25T08:46:08Z</time>
      </trkpt>
      <trkpt lat="45.73637" lon="4.33286">
        <ele>486</ele>
        <time>2012-03-25T08:46:09Z</time>
      </trkpt>
      <trkpt lat="45.73643" lon="4.33282">
        <ele>486</ele>
        <time>2012-03-25T08:46:10Z</time>
      </trkpt>
      <trkpt lat="45.73648" lon="4.33279">
        <ele>487</ele>
        <time>2012-03-25T08:46:11Z</time>
      </trkpt>
      <trkpt lat="45.73654" lon="4.33277">
        <ele>488</ele>
        <time>2012-03-25T08:46:12Z</time>
      </trkpt>
      <trkpt lat="45.7366" lon="4.33274">
        <ele>488</ele>
        <time>2012-03-25T08:46:13Z</time>
      </trkpt>
      <trkpt lat="45.73665" lon="4.33272">
        <ele>489</ele>
        <time>2012-03-25T08:46:14Z</time>
      </trkpt>
      <trkpt lat="45.73682" lon="4.33263">
        <ele>490</ele>
        <time>2012-03-25T08:46:17Z</time>
      </trkpt>
      <trkpt lat="45.73687" lon="4.33259">
        <ele>490</ele>
        <time>2012-03-25T08:46:18Z</time>
      </trkpt>
      <trkpt lat="45.73693" lon="4.33256">
        <ele>491</ele>
        <time>2012-03-25T08:46:19Z</time>
      </trkpt>
      <trkpt lat="45.73746" lon="4.33227">
        <ele>493</ele>
        <time>2012-03-25T08:46:28Z</time>
      </trkpt>
      <trkpt lat="45.73763" lon="4.3322">
        <ele>495</ele>
        <time>2012-03-25T08:46:31Z</time>
      </trkpt>
      <trkpt lat="45.73801" lon="4.332">
        <ele>497</ele>
        <time>2012-03-25T08:46:43Z</time>
      </trkpt>
      <trkpt lat="45.73814" lon="4.3319">
        <ele>499</ele>
        <time>2012-03-25T08:46:56Z</time>
      </trkpt>
      <trkpt lat="45.73816" lon="4.33188">
        <ele>499</ele>
        <time>2012-03-25T08:46:57Z</time>
      </trkpt>
      <trkpt lat="45.73818" lon="4.33186">
        <ele>499</ele>
        <time>2012-03-25T08:46:58Z</time>
      </trkpt>
      <trkpt lat="45.73821" lon="4.33184">
        <ele>498</ele>
        <time>2012-03-25T08:47:07Z</time>
      </trkpt>
      <trkpt lat="45.73824" lon="4.33179">
        <ele>498</ele>
        <time>2012-03-25T08:47:15Z</time>
      </trkpt>
      <trkpt lat="45.73826" lon="4.33177">
        <ele>498</ele>
        <time>2012-03-25T08:47:16Z</time>
      </trkpt>
      <trkpt lat="45.73827" lon="4.33175">
        <ele>498</ele>
        <time>2012-03-25T08:47:26Z</time>
      </trkpt>
      <trkpt lat="45.73829" lon="4.33171">
        <ele>497</ele>
        <time>2012-03-25T08:47:40Z</time>
      </trkpt>
      <trkpt lat="45.73832" lon="4.33167">
        <ele>497</ele>
        <time>2012-03-25T08:47:46Z</time>
      </trkpt>
      <trkpt lat="45.73846" lon="4.33153">
        <ele>497</ele>
        <time>2012-03-25T08:47:57Z</time>
      </trkpt>
      <trkpt lat="45.73847" lon="4.33152">
        <ele>497</ele>
        <time>2012-03-25T08:48:13Z</time>
      </trkpt>
      <trkpt lat="45.73857" lon="4.33142">
        <ele>497</ele>
        <time>2012-03-25T08:48:28Z</time>
      </trkpt>
      <trkpt lat="45.7386" lon="4.33136">
        <ele>498</ele>
        <time>2012-03-25T08:48:38Z</time>
      </trkpt>
      <trkpt lat="45.73864" lon="4.33131">
        <ele>497</ele>
        <time>2012-03-25T08:48:41Z</time>
      </trkpt>
      <trkpt lat="45.7387" lon="4.33122">
        <ele>497</ele>
        <time>2012-03-25T08:48:46Z</time>
      </trkpt>
      <trkpt lat="45.73871" lon="4.33121">
        <ele>497</ele>
        <time>2012-03-25T08:48:47Z</time>
      </trkpt>
      <trkpt lat="45.73873" lon="4.33119">
        <ele>497</ele>
        <time>2012-03-25T08:48:48Z</time>
      </trkpt>
      <trkpt lat="45.73874" lon="4.33118">
        <ele>497</ele>
        <time>2012-03-25T08:48:49Z</time>
      </trkpt>
      <trkpt lat="45.73875" lon="4.33116">
        <ele>497</ele>
        <time>2012-03-25T08:48:50Z</time>
      </trkpt>
      <trkpt lat="45.73876" lon="4.33115">
        <ele>496</ele>
        <time>2012-03-25T08:48:51Z</time>
      </trkpt>
      <trkpt lat="45.73878" lon="4.33113">
        <ele>496</ele>
        <time>2012-03-25T08:48:52Z</time>
      </trkpt>
      <trkpt lat="45.73878" lon="4.33112">
        <ele>496</ele>
        <time>2012-03-25T08:48:53Z</time>
      </trkpt>
      <trkpt lat="45.73887" lon="4.33094">
        <ele>496</ele>
        <time>2012-03-25T08:49:03Z</time>
      </trkpt>
      <trkpt lat="45.73888" lon="4.33092">
        <ele>496</ele>
        <time>2012-03-25T08:49:04Z</time>
      </trkpt>
      <trkpt lat="45.73888" lon="4.3309">
        <ele>495</ele>
        <time>2012-03-25T08:49:05Z</time>
      </trkpt>
      <trkpt lat="45.73887" lon="4.33088">
        <ele>496</ele>
        <time>2012-03-25T08:49:06Z</time>
      </trkpt>
      <trkpt lat="45.73887" lon="4.33087">
        <ele>496</ele>
        <time>2012-03-25T08:49:07Z</time>
      </trkpt>
      <trkpt lat="45.73886" lon="4.33085">
        <ele>496</ele>
        <time>2012-03-25T08:49:08Z</time>
      </trkpt>
      <trkpt lat="45.73885" lon="4.33083">
        <ele>496</ele>
        <time>2012-03-25T08:49:09Z</time>
      </trkpt>
      <trkpt lat="45.73885" lon="4.33081">
        <ele>495</ele>
        <time>2012-03-25T08:49:10Z</time>
      </trkpt>
      <trkpt lat="45.73873" lon="4.33042">
        <ele>495</ele>
        <time>2012-03-25T08:49:27Z</time>
      </trkpt>
      <trkpt lat="45.73864" lon="4.3301">
        <ele>494</ele>
        <time>2012-03-25T08:49:43Z</time>
      </trkpt>
      <trkpt lat="45.73856" lon="4.32981">
        <ele>494</ele>
        <time>2012-03-25T08:49:58Z</time>
      </trkpt>
      <trkpt lat="45.7385" lon="4.32937">
        <ele>494</ele>
        <time>2012-03-25T08:50:17Z</time>
      </trkpt>
      <trkpt lat="45.7383" lon="4.32915">
        <ele>494</ele>
        <time>2012-03-25T08:50:33Z</time>
      </trkpt>
      <trkpt lat="45.73818" lon="4.32889">
        <ele>495</ele>
        <time>2012-03-25T08:50:48Z</time>
      </trkpt>
      <trkpt lat="45.73819" lon="4.32862">
        <ele>496</ele>
        <time>2012-03-25T08:51:02Z</time>
      </trkpt>
      <trkpt lat="45.73825" lon="4.32835">
        <ele>492</ele>
        <time>2012-03-25T08:51:16Z</time>
      </trkpt>
      <trkpt lat="45.7383" lon="4.32809">
        <ele>490</ele>
        <time>2012-03-25T08:51:29Z</time>
      </trkpt>
      <trkpt lat="45.73836" lon="4.32769">
        <ele>488</ele>
        <time>2012-03-25T08:51:46Z</time>
      </trkpt>
      <trkpt lat="45.73838" lon="4.3273">
        <ele>486</ele>
        <time>2012-03-25T08:52:00Z</time>
      </trkpt>
      <trkpt lat="45.73839" lon="4.32687">
        <ele>484</ele>
        <time>2012-03-25T08:52:17Z</time>
      </trkpt>
      <trkpt lat="45.7384" lon="4.32651">
        <ele>483</ele>
        <time>2012-03-25T08:52:34Z</time>
      </trkpt>
      <trkpt lat="45.73845" lon="4.32614">
        <ele>483</ele>
        <time>2012-03-25T08:52:50Z</time>
      </trkpt>
      <trkpt lat="45.7385" lon="4.32576">
        <ele>483</ele>
        <time>2012-03-25T08:53:09Z</time>
      </trkpt>
      <trkpt lat="45.73855" lon="4.32551">
        <ele>485</ele>
        <time>2012-03-25T08:53:20Z</time>
      </trkpt>
      <trkpt lat="45.73856" lon="4.32548">
        <ele>485</ele>
        <time>2012-03-25T08:53:21Z</time>
      </trkpt>
      <trkpt lat="45.73857" lon="4.32546">
        <ele>484</ele>
        <time>2012-03-25T08:53:22Z</time>
      </trkpt>
      <trkpt lat="45.73859" lon="4.32545">
        <ele>485</ele>
        <time>2012-03-25T08:53:23Z</time>
      </trkpt>
      <trkpt lat="45.7386" lon="4.32543">
        <ele>486</ele>
        <time>2012-03-25T08:53:24Z</time>
      </trkpt>
      <trkpt lat="45.73862" lon="4.32542">
        <ele>485</ele>
        <time>2012-03-25T08:53:25Z</time>
      </trkpt>
      <trkpt lat="45.73863" lon="4.3254">
        <ele>485</ele>
        <time>2012-03-25T08:53:26Z</time>
      </trkpt>
      <trkpt lat="45.73864" lon="4.32539">
        <ele>485</ele>
        <time>2012-03-25T08:53:27Z</time>
      </trkpt>
      <trkpt lat="45.73869" lon="4.32535">
        <ele>485</ele>
        <time>2012-03-25T08:53:36Z</time>
      </trkpt>
      <trkpt lat="45.73873" lon="4.32528">
        <ele>484</ele>
        <time>2012-03-25T08:53:39Z</time>
      </trkpt>
      <trkpt lat="45.73874" lon="4.32526">
        <ele>484</ele>
        <time>2012-03-25T08:53:40Z</time>
      </trkpt>
      <trkpt lat="45.73875" lon="4.32524">
        <ele>484</ele>
        <time>2012-03-25T08:53:41Z</time>
      </trkpt>
      <trkpt lat="45.73876" lon="4.32522">
        <ele>484</ele>
        <time>2012-03-25T08:53:42Z</time>
      </trkpt>
      <trkpt lat="45.73877" lon="4.3252">
        <ele>484</ele>
        <time>2012-03-25T08:53:43Z</time>
      </trkpt>
      <trkpt lat="45.73879" lon="4.32513">
        <ele>482</ele>
        <time>2012-03-25T08:53:46Z</time>
      </trkpt>
      <trkpt lat="45.73887" lon="4.3249">
        <ele>479</ele>
        <time>2012-03-25T08:53:57Z</time>
      </trkpt>
      <trkpt lat="45.73896" lon="4.32463">
        <ele>476</ele>
        <time>2012-03-25T08:54:09Z</time>
      </trkpt>
      <trkpt lat="45.73902" lon="4.32442">
        <ele>472</ele>
        <time>2012-03-25T08:54:20Z</time>
      </trkpt>
      <trkpt lat="45.73907" lon="4.32417">
        <ele>469</ele>
        <time>2012-03-25T08:54:33Z</time>
      </trkpt>
      <trkpt lat="45.7391" lon="4.32407">
        <ele>467</ele>
        <time>2012-03-25T08:54:39Z</time>
      </trkpt>
      <trkpt lat="45.73912" lon="4.32393">
        <ele>466</ele>
        <time>2012-03-25T08:54:54Z</time>
      </trkpt>
      <trkpt lat="45.73912" lon="4.32383">
        <ele>465</ele>
        <time>2012-03-25T08:55:09Z</time>
      </trkpt>
      <trkpt lat="45.73913" lon="4.32369">
        <ele>462</ele>
        <time>2012-03-25T08:55:23Z</time>
      </trkpt>
      <trkpt lat="45.73916" lon="4.32343">
        <ele>459</ele>
        <time>2012-03-25T08:55:37Z</time>
      </trkpt>
      <trkpt lat="45.7392" lon="4.32323">
        <ele>457</ele>
        <time>2012-03-25T08:55:47Z</time>
      </trkpt>
      <trkpt lat="45.73927" lon="4.32283">
        <ele>454</ele>
        <time>2012-03-25T08:56:05Z</time>
      </trkpt>
      <trkpt lat="45.73933" lon="4.32253">
        <ele>451</ele>
        <time>2012-03-25T08:56:22Z</time>
      </trkpt>
      <trkpt lat="45.73935" lon="4.32233">
        <ele>448</ele>
        <time>2012-03-25T08:56:35Z</time>
      </trkpt>
      <trkpt lat="45.73935" lon="4.3223">
        <ele>451</ele>
        <time>2012-03-25T08:56:36Z</time>
      </trkpt>
      <trkpt lat="45.73939" lon="4.32221">
        <ele>450</ele>
        <time>2012-03-25T08:56:44Z</time>
      </trkpt>
      <trkpt lat="45.73943" lon="4.32216">
        <ele>451</ele>
        <time>2012-03-25T08:56:48Z</time>
      </trkpt>
      <trkpt lat="45.73946" lon="4.32195">
        <ele>454</ele>
        <time>2012-03-25T08:56:59Z</time>
      </trkpt>
      <trkpt lat="45.73952" lon="4.32176">
        <ele>458</ele>
        <time>2012-03-25T08:57:07Z</time>
      </trkpt>
      <trkpt lat="45.73953" lon="4.32173">
        <ele>458</ele>
        <time>2012-03-25T08:57:08Z</time>
      </trkpt>
      <trkpt lat="45.73955" lon="4.32162">
        <ele>460</ele>
        <time>2012-03-25T08:57:13Z</time>
      </trkpt>
      <trkpt lat="45.73958" lon="4.32141">
        <ele>463</ele>
        <time>2012-03-25T08:57:21Z</time>
      </trkpt>
      <trkpt lat="45.73957" lon="4.32135">
        <ele>464</ele>
        <time>2012-03-25T08:57:23Z</time>
      </trkpt>
      <trkpt lat="45.73959" lon="4.32121">
        <ele>466</ele>
        <time>2012-03-25T08:57:28Z</time>
      </trkpt>
      <trkpt lat="45.73961" lon="4.32097">
        <ele>469</ele>
        <time>2012-03-25T08:57:39Z</time>
      </trkpt>
      <trkpt lat="45.73962" lon="4.32074">
        <ele>472</ele>
        <time>2012-03-25T08:57:47Z</time>
      </trkpt>
      <trkpt lat="45.73978" lon="4.32037">
        <ele>474</ele>
        <time>2012-03-25T08:58:05Z</time>
      </trkpt>
      <trkpt lat="45.73987" lon="4.32025">
        <ele>474</ele>
        <time>2012-03-25T08:58:14Z</time>
      </trkpt>
      <trkpt lat="45.73989" lon="4.32025">
        <ele>474</ele>
        <time>2012-03-25T08:58:15Z</time>
      </trkpt>
      <trkpt lat="45.7399" lon="4.32024">
        <ele>475</ele>
        <time>2012-03-25T08:58:16Z</time>
      </trkpt>
      <trkpt lat="45.73992" lon="4.32023">
        <ele>475</ele>
        <time>2012-03-25T08:58:17Z</time>
      </trkpt>
      <trkpt lat="45.73993" lon="4.32022">
        <ele>475</ele>
        <time>2012-03-25T08:58:18Z</time>
      </trkpt>
      <trkpt lat="45.73994" lon="4.32022">
        <ele>475</ele>
        <time>2012-03-25T08:58:19Z</time>
      </trkpt>
      <trkpt lat="45.74024" lon="4.3201">
        <ele>478</ele>
        <time>2012-03-25T08:58:39Z</time>
      </trkpt>
      <trkpt lat="45.74051" lon="4.32009">
        <ele>480</ele>
        <time>2012-03-25T08:58:54Z</time>
      </trkpt>
      <trkpt lat="45.74073" lon="4.32012">
        <ele>482</ele>
        <time>2012-03-25T08:59:08Z</time>
      </trkpt>
      <trkpt lat="45.74105" lon="4.32012">
        <ele>485</ele>
        <time>2012-03-25T08:59:25Z</time>
      </trkpt>
      <trkpt lat="45.74126" lon="4.32014">
        <ele>487</ele>
        <time>2012-03-25T08:59:39Z</time>
      </trkpt>
      <trkpt lat="45.74145" lon="4.32019">
        <ele>489</ele>
        <time>2012-03-25T08:59:56Z</time>
      </trkpt>
      <trkpt lat="45.74154" lon="4.3202">
        <ele>489</ele>
        <time>2012-03-25T09:00:03Z</time>
      </trkpt>
      <trkpt lat="45.74157" lon="4.32019">
        <ele>489</ele>
        <time>2012-03-25T09:00:04Z</time>
      </trkpt>
      <trkpt lat="45.74166" lon="4.32017">
        <ele>488</ele>
        <time>2012-03-25T09:00:08Z</time>
      </trkpt>
      <trkpt lat="45.74173" lon="4.32013">
        <ele>487</ele>
        <time>2012-03-25T09:00:12Z</time>
      </trkpt>
      <trkpt lat="45.74187" lon="4.32001">
        <ele>485</ele>
        <time>2012-03-25T09:00:21Z</time>
      </trkpt>
      <trkpt lat="45.74208" lon="4.3197">
        <ele>484</ele>
        <time>2012-03-25T09:00:38Z</time>
      </trkpt>
      <trkpt lat="45.7421" lon="4.31966">
        <ele>484</ele>
        <time>2012-03-25T09:00:41Z</time>
      </trkpt>
      <trkpt lat="45.74211" lon="4.31963">
        <ele>484</ele>
        <time>2012-03-25T09:00:42Z</time>
      </trkpt>
      <trkpt lat="45.74211" lon="4.31961">
        <ele>484</ele>
        <time>2012-03-25T09:00:43Z</time>
      </trkpt>
      <trkpt lat="45.74212" lon="4.31959">
        <ele>484</ele>
        <time>2012-03-25T09:00:44Z</time>
      </trkpt>
      <trkpt lat="45.74213" lon="4.31957">
        <ele>484</ele>
        <time>2012-03-25T09:00:45Z</time>
      </trkpt>
      <trkpt lat="45.74213" lon="4.31955">
        <ele>485</ele>
        <time>2012-03-25T09:00:46Z</time>
      </trkpt>
      <trkpt lat="45.74223" lon="4.31921">
        <ele>488</ele>
        <time>2012-03-25T09:01:02Z</time>
      </trkpt>
      <trkpt lat="45.7422" lon="4.31901">
        <ele>491</ele>
        <time>2012-03-25T09:01:11Z</time>
      </trkpt>
      <trkpt lat="45.7421" lon="4.31877">
        <ele>494</ele>
        <time>2012-03-25T09:01:23Z</time>
      </trkpt>
      <trkpt lat="45.74208" lon="4.31873">
        <ele>495</ele>
        <time>2012-03-25T09:01:25Z</time>
      </trkpt>
      <trkpt lat="45.74207" lon="4.31872">
        <ele>495</ele>
        <time>2012-03-25T09:01:26Z</time>
      </trkpt>
      <trkpt lat="45.74206" lon="4.3187">
        <ele>495</ele>
        <time>2012-03-25T09:01:27Z</time>
      </trkpt>
      <trkpt lat="45.74204" lon="4.31869">
        <ele>495</ele>
        <time>2012-03-25T09:01:28Z</time>
      </trkpt>
      <trkpt lat="45.74203" lon="4.31867">
        <ele>496</ele>
        <time>2012-03-25T09:01:29Z</time>
      </trkpt>
      <trkpt lat="45.74202" lon="4.31865">
        <ele>496</ele>
        <time>2012-03-25T09:01:30Z</time>
      </trkpt>
      <trkpt lat="45.74201" lon="4.31864">
        <ele>496</ele>
        <time>2012-03-25T09:01:31Z</time>
      </trkpt>
      <trkpt lat="45.74196" lon="4.31857">
        <ele>498</ele>
        <time>2012-03-25T09:01:35Z</time>
      </trkpt>
      <trkpt lat="45.74184" lon="4.31832">
        <ele>501</ele>
        <time>2012-03-25T09:01:46Z</time>
      </trkpt>
      <trkpt lat="45.74181" lon="4.31801">
        <ele>503</ele>
        <time>2012-03-25T09:02:01Z</time>
      </trkpt>
      <trkpt lat="45.74198" lon="4.31777">
        <ele>505</ele>
        <time>2012-03-25T09:02:17Z</time>
      </trkpt>
      <trkpt lat="45.74216" lon="4.3176">
        <ele>506</ele>
        <time>2012-03-25T09:02:34Z</time>
      </trkpt>
      <trkpt lat="45.74218" lon="4.31759">
        <ele>507</ele>
        <time>2012-03-25T09:02:47Z</time>
      </trkpt>
      <trkpt lat="45.7422" lon="4.31756">
        <ele>507</ele>
        <time>2012-03-25T09:02:49Z</time>
      </trkpt>
      <trkpt lat="45.74221" lon="4.31754">
        <ele>507</ele>
        <time>2012-03-25T09:02:50Z</time>
      </trkpt>
      <trkpt lat="45.74223" lon="4.31753">
        <ele>506</ele>
        <time>2012-03-25T09:02:51Z</time>
      </trkpt>
      <trkpt lat="45.74224" lon="4.31752">
        <ele>507</ele>
        <time>2012-03-25T09:02:52Z</time>
      </trkpt>
      <trkpt lat="45.74225" lon="4.3175">
        <ele>506</ele>
        <time>2012-03-25T09:02:53Z</time>
      </trkpt>
      <trkpt lat="45.74226" lon="4.31749">
        <ele>506</ele>
        <time>2012-03-25T09:02:54Z</time>
      </trkpt>
      <trkpt lat="45.74227" lon="4.31748">
        <ele>506</ele>
        <time>2012-03-25T09:02:55Z</time>
      </trkpt>
      <trkpt lat="45.74253" lon="4.3172">
        <ele>506</ele>
        <time>2012-03-25T09:03:13Z</time>
      </trkpt>
      <trkpt lat="45.74276" lon="4.31689">
        <ele>503</ele>
        <time>2012-03-25T09:03:31Z</time>
      </trkpt>
      <trkpt lat="45.74296" lon="4.31659">
        <ele>500</ele>
        <time>2012-03-25T09:03:49Z</time>
      </trkpt>
      <trkpt lat="45.74315" lon="4.31631">
        <ele>498</ele>
        <time>2012-03-25T09:04:05Z</time>
      </trkpt>
      <trkpt lat="45.74334" lon="4.31603">
        <ele>494</ele>
        <time>2012-03-25T09:04:19Z</time>
      </trkpt>
      <trkpt lat="45.74354" lon="4.31566">
        <ele>492</ele>
        <time>2012-03-25T09:04:35Z</time>
      </trkpt>
      <trkpt lat="45.74367" lon="4.31535">
        <ele>494</ele>
        <time>2012-03-25T09:04:50Z</time>
      </trkpt>
      <trkpt lat="45.74373" lon="4.31534">
        <ele>496</ele>
        <time>2012-03-25T09:04:54Z</time>
      </trkpt>
      <trkpt lat="45.74387" lon="4.31538">
        <ele>499</ele>
        <time>2012-03-25T09:05:05Z</time>
      </trkpt>
      <trkpt lat="45.74394" lon="4.31537">
        <ele>500</ele>
        <time>2012-03-25T09:05:10Z</time>
      </trkpt>
      <trkpt lat="45.74409" lon="4.31531">
        <ele>503</ele>
        <time>2012-03-25T09:05:21Z</time>
      </trkpt>
      <trkpt lat="45.74431" lon="4.31515">
        <ele>507</ele>
        <time>2012-03-25T09:05:36Z</time>
      </trkpt>
      <trkpt lat="45.74453" lon="4.31482">
        <ele>510</ele>
        <time>2012-03-25T09:05:54Z</time>
      </trkpt>
      <trkpt lat="45.74467" lon="4.31448">
        <ele>512</ele>
        <time>2012-03-25T09:06:13Z</time>
      </trkpt>
      <trkpt lat="45.74481" lon="4.31424">
        <ele>512</ele>
        <time>2012-03-25T09:06:28Z</time>
      </trkpt>
      <trkpt lat="45.74494" lon="4.314">
        <ele>512</ele>
        <time>2012-03-25T09:06:42Z</time>
      </trkpt>
      <trkpt lat="45.74509" lon="4.31376">
        <ele>510</ele>
        <time>2012-03-25T09:06:57Z</time>
      </trkpt>
      <trkpt lat="45.7451" lon="4.31334">
        <ele>508</ele>
        <time>2012-03-25T09:07:13Z</time>
      </trkpt>
      <trkpt lat="45.74511" lon="4.31301">
        <ele>505</ele>
        <time>2012-03-25T09:07:28Z</time>
      </trkpt>
      <trkpt lat="45.74519" lon="4.31269">
        <ele>503</ele>
        <time>2012-03-25T09:07:44Z</time>
      </trkpt>
      <trkpt lat="45.7452" lon="4.31264">
        <ele>502</ele>
        <time>2012-03-25T09:07:45Z</time>
      </trkpt>
      <trkpt lat="45.7453" lon="4.31229">
        <ele>501</ele>
        <time>2012-03-25T09:07:59Z</time>
      </trkpt>
      <trkpt lat="45.74534" lon="4.31186">
        <ele>501</ele>
        <time>2012-03-25T09:08:17Z</time>
      </trkpt>
      <trkpt lat="45.74539" lon="4.31144">
        <ele>500</ele>
        <time>2012-03-25T09:08:34Z</time>
      </trkpt>
      <trkpt lat="45.74541" lon="4.31112">
        <ele>501</ele>
        <time>2012-03-25T09:08:49Z</time>
      </trkpt>
      <trkpt lat="45.74542" lon="4.31107">
        <ele>501</ele>
        <time>2012-03-25T09:09:01Z</time>
      </trkpt>
      <trkpt lat="45.74543" lon="4.31098">
        <ele>501</ele>
        <time>2012-03-25T09:09:06Z</time>
      </trkpt>
      <trkpt lat="45.74553" lon="4.31069">
        <ele>503</ele>
        <time>2012-03-25T09:09:23Z</time>
      </trkpt>
      <trkpt lat="45.74552" lon="4.31065">
        <ele>502</ele>
        <time>2012-03-25T09:09:25Z</time>
      </trkpt>
      <trkpt lat="45.74555" lon="4.31033">
        <ele>506</ele>
        <time>2012-03-25T09:09:40Z</time>
      </trkpt>
      <trkpt lat="45.74556" lon="4.31031">
        <ele>506</ele>
        <time>2012-03-25T09:09:41Z</time>
      </trkpt>
      <trkpt lat="45.74568" lon="4.31014">
        <ele>509</ele>
        <time>2012-03-25T09:09:53Z</time>
      </trkpt>
      <trkpt lat="45.74568" lon="4.31013">
        <ele>509</ele>
        <time>2012-03-25T09:09:54Z</time>
      </trkpt>
      <trkpt lat="45.74583" lon="4.30999">
        <ele>513</ele>
        <time>2012-03-25T09:10:08Z</time>
      </trkpt>
      <trkpt lat="45.74591" lon="4.31002">
        <ele>513</ele>
        <time>2012-03-25T09:10:21Z</time>
      </trkpt>
      <trkpt lat="45.74592" lon="4.31003">
        <ele>513</ele>
        <time>2012-03-25T09:10:22Z</time>
      </trkpt>
      <trkpt lat="45.74616" lon="4.31024">
        <ele>511</ele>
        <time>2012-03-25T09:10:39Z</time>
      </trkpt>
      <trkpt lat="45.74617" lon="4.31025">
        <ele>511</ele>
        <time>2012-03-25T09:10:40Z</time>
      </trkpt>
      <trkpt lat="45.74639" lon="4.31042">
        <ele>508</ele>
        <time>2012-03-25T09:10:56Z</time>
      </trkpt>
      <trkpt lat="45.7464" lon="4.31044">
        <ele>508</ele>
        <time>2012-03-25T09:11:03Z</time>
      </trkpt>
      <trkpt lat="45.74644" lon="4.31047">
        <ele>507</ele>
        <time>2012-03-25T09:11:06Z</time>
      </trkpt>
      <trkpt lat="45.74645" lon="4.31047">
        <ele>508</ele>
        <time>2012-03-25T09:11:07Z</time>
      </trkpt>
      <trkpt lat="45.74647" lon="4.31048">
        <ele>507</ele>
        <time>2012-03-25T09:11:08Z</time>
      </trkpt>
      <trkpt lat="45.74663" lon="4.31054">
        <ele>505</ele>
        <time>2012-03-25T09:11:20Z</time>
      </trkpt>
      <trkpt lat="45.74667" lon="4.31058">
        <ele>504</ele>
        <time>2012-03-25T09:11:32Z</time>
      </trkpt>
      <trkpt lat="45.74672" lon="4.31061">
        <ele>503</ele>
        <time>2012-03-25T09:11:46Z</time>
      </trkpt>
      <trkpt lat="45.74674" lon="4.31063">
        <ele>503</ele>
        <time>2012-03-25T09:12:12Z</time>
      </trkpt>
      <trkpt lat="45.74675" lon="4.31062">
        <ele>503</ele>
        <time>2012-03-25T09:12:16Z</time>
      </trkpt>
      <trkpt lat="45.74676" lon="4.31062">
        <ele>503</ele>
        <time>2012-03-25T09:12:18Z</time>
      </trkpt>
      <trkpt lat="45.74677" lon="4.31061">
        <ele>502</ele>
        <time>2012-03-25T09:12:19Z</time>
      </trkpt>
      <trkpt lat="45.7469" lon="4.31053">
        <ele>500</ele>
        <time>2012-03-25T09:12:35Z</time>
      </trkpt>
      <trkpt lat="45.74702" lon="4.31046">
        <ele>496</ele>
        <time>2012-03-25T09:12:47Z</time>
      </trkpt>
      <trkpt lat="45.74716" lon="4.31027">
        <ele>493</ele>
        <time>2012-03-25T09:13:01Z</time>
      </trkpt>
      <trkpt lat="45.74725" lon="4.31009">
        <ele>491</ele>
        <time>2012-03-25T09:13:13Z</time>
      </trkpt>
      <trkpt lat="45.74734" lon="4.30977">
        <ele>488</ele>
        <time>2012-03-25T09:13:31Z</time>
      </trkpt>
      <trkpt lat="45.7474" lon="4.30941">
        <ele>487</ele>
        <time>2012-03-25T09:13:49Z</time>
      </trkpt>
      <trkpt lat="45.74755" lon="4.30912">
        <ele>486</ele>
        <time>2012-03-25T09:14:06Z</time>
      </trkpt>
      <trkpt lat="45.7477" lon="4.30893">
        <ele>483</ele>
        <time>2012-03-25T09:14:22Z</time>
      </trkpt>
      <trkpt lat="45.74787" lon="4.30874">
        <ele>479</ele>
        <time>2012-03-25T09:14:37Z</time>
      </trkpt>
      <trkpt lat="45.74796" lon="4.3087">
        <ele>478</ele>
        <time>2012-03-25T09:14:43Z</time>
      </trkpt>
      <trkpt lat="45.74818" lon="4.30857">
        <ele>475</ele>
        <time>2012-03-25T09:14:59Z</time>
      </trkpt>
      <trkpt lat="45.74835" lon="4.30847">
        <ele>472</ele>
        <time>2012-03-25T09:15:12Z</time>
      </trkpt>
      <trkpt lat="45.74854" lon="4.3083">
        <ele>468</ele>
        <time>2012-03-25T09:15:29Z</time>
      </trkpt>
      <trkpt lat="45.74871" lon="4.308">
        <ele>466</ele>
        <time>2012-03-25T09:15:46Z</time>
      </trkpt>
      <trkpt lat="45.74873" lon="4.3077">
        <ele>463</ele>
        <time>2012-03-25T09:16:00Z</time>
      </trkpt>
      <trkpt lat="45.74874" lon="4.30736">
        <ele>460</ele>
        <time>2012-03-25T09:16:17Z</time>
      </trkpt>
      <trkpt lat="45.74874" lon="4.307">
        <ele>457</ele>
        <time>2012-03-25T09:16:34Z</time>
      </trkpt>
      <trkpt lat="45.74878" lon="4.30665">
        <ele>454</ele>
        <time>2012-03-25T09:16:52Z</time>
      </trkpt>
      <trkpt lat="45.74881" lon="4.30635">
        <ele>451</ele>
        <time>2012-03-25T09:17:07Z</time>
      </trkpt>
      <trkpt lat="45.74887" lon="4.30615">
        <ele>448</ele>
        <time>2012-03-25T09:17:24Z</time>
      </trkpt>
      <trkpt lat="45.74887" lon="4.30612">
        <ele>449</ele>
        <time>2012-03-25T09:17:28Z</time>
      </trkpt>
      <trkpt lat="45.74891" lon="4.30602">
        <ele>446</ele>
        <time>2012-03-25T09:17:35Z</time>
      </trkpt>
      <trkpt lat="45.74904" lon="4.30583">
        <ele>443</ele>
        <time>2012-03-25T09:17:52Z</time>
      </trkpt>
      <trkpt lat="45.74919" lon="4.30566">
        <ele>439</ele>
        <time>2012-03-25T09:18:04Z</time>
      </trkpt>
      <trkpt lat="45.74934" lon="4.30551">
        <ele>437</ele>
        <time>2012-03-25T09:18:17Z</time>
      </trkpt>
      <trkpt lat="45.74939" lon="4.30544">
        <ele>436</ele>
        <time>2012-03-25T09:18:33Z</time>
      </trkpt>
      <trkpt lat="45.74952" lon="4.30532">
        <ele>432</ele>
        <time>2012-03-25T09:18:46Z</time>
      </trkpt>
      <trkpt lat="45.74966" lon="4.3052">
        <ele>430</ele>
        <time>2012-03-25T09:19:02Z</time>
      </trkpt>
      <trkpt lat="45.74972" lon="4.30513">
        <ele>429</ele>
        <time>2012-03-25T09:19:21Z</time>
      </trkpt>
      <trkpt lat="45.74978" lon="4.30515">
        <ele>430</ele>
        <time>2012-03-25T09:19:40Z</time>
      </trkpt>
      <trkpt lat="45.74978" lon="4.30515">
        <ele>431</ele>
        <time>2012-03-25T09:20:03Z</time>
      </trkpt>
      <trkpt lat="45.74975" lon="4.30508">
        <ele>429</ele>
        <time>2012-03-25T09:20:25Z</time>
      </trkpt>
      <trkpt lat="45.74975" lon="4.30508">
        <ele>430</ele>
        <time>2012-03-25T09:20:48Z</time>
      </trkpt>
      <trkpt lat="45.74974" lon="4.30514">
        <ele>431</ele>
        <time>2012-03-25T09:21:11Z</time>
      </trkpt>
      <trkpt lat="45.74973" lon="4.30512">
        <ele>429</ele>
        <time>2012-03-25T09:21:18Z</time>
      </trkpt>
      <trkpt lat="45.74982" lon="4.30511">
        <ele>427</ele>
        <time>2012-03-25T09:21:33Z</time>
      </trkpt>
      <trkpt lat="45.74994" lon="4.30504">
        <ele>427</ele>
        <time>2012-03-25T09:21:48Z</time>
      </trkpt>
      <trkpt lat="45.74998" lon="4.30498">
        <ele>429</ele>
        <time>2012-03-25T09:21:59Z</time>
      </trkpt>
      <trkpt lat="45.74999" lon="4.30495">
        <ele>429</ele>
        <time>2012-03-25T09:22:01Z</time>
      </trkpt>
      <trkpt lat="45.74997" lon="4.30472">
        <ele>431</ele>
        <time>2012-03-25T09:22:15Z</time>
      </trkpt>
      <trkpt lat="45.74991" lon="4.30438">
        <ele>433</ele>
        <time>2012-03-25T09:22:30Z</time>
      </trkpt>
      <trkpt lat="45.74983" lon="4.30419">
        <ele>435</ele>
        <time>2012-03-25T09:22:43Z</time>
      </trkpt>
      <trkpt lat="45.74968" lon="4.30407">
        <ele>438</ele>
        <time>2012-03-25T09:22:57Z</time>
      </trkpt>
      <trkpt lat="45.74964" lon="4.30406">
        <ele>439</ele>
        <time>2012-03-25T09:23:01Z</time>
      </trkpt>
      <trkpt lat="45.74951" lon="4.30405">
        <ele>441</ele>
        <time>2012-03-25T09:23:10Z</time>
      </trkpt>
      <trkpt lat="45.74932" lon="4.30403">
        <ele>443</ele>
        <time>2012-03-25T09:23:22Z</time>
      </trkpt>
      <trkpt lat="45.7492" lon="4.30404">
        <ele>444</ele>
        <time>2012-03-25T09:23:27Z</time>
      </trkpt>
      <trkpt lat="45.74918" lon="4.30403">
        <ele>445</ele>
        <time>2012-03-25T09:23:29Z</time>
      </trkpt>
      <trkpt lat="45.74924" lon="4.3039">
        <ele>448</ele>
        <time>2012-03-25T09:23:46Z</time>
      </trkpt>
      <trkpt lat="45.74942" lon="4.30377">
        <ele>451</ele>
        <time>2012-03-25T09:24:04Z</time>
      </trkpt>
      <trkpt lat="45.74954" lon="4.30359">
        <ele>453</ele>
        <time>2012-03-25T09:24:20Z</time>
      </trkpt>
      <trkpt lat="45.7497" lon="4.30345">
        <ele>456</ele>
        <time>2012-03-25T09:24:36Z</time>
      </trkpt>
      <trkpt lat="45.74987" lon="4.30337">
        <ele>459</ele>
        <time>2012-03-25T09:24:53Z</time>
      </trkpt>
      <trkpt lat="45.74999" lon="4.30333">
        <ele>463</ele>
        <time>2012-03-25T09:25:10Z</time>
      </trkpt>
      <trkpt lat="45.75011" lon="4.30333">
        <ele>466</ele>
        <time>2012-03-25T09:25:22Z</time>
      </trkpt>
      <trkpt lat="45.75014" lon="4.30332">
        <ele>467</ele>
        <time>2012-03-25T09:25:24Z</time>
      </trkpt>
      <trkpt lat="45.75029" lon="4.30332">
        <ele>470</ele>
        <time>2012-03-25T09:25:35Z</time>
      </trkpt>
      <trkpt lat="45.75052" lon="4.30326">
        <ele>473</ele>
        <time>2012-03-25T09:25:48Z</time>
      </trkpt>
      <trkpt lat="45.75076" lon="4.30325">
        <ele>476</ele>
        <time>2012-03-25T09:26:02Z</time>
      </trkpt>
      <trkpt lat="45.75102" lon="4.30337">
        <ele>479</ele>
        <time>2012-03-25T09:26:17Z</time>
      </trkpt>
      <trkpt lat="45.75129" lon="4.30339">
        <ele>483</ele>
        <time>2012-03-25T09:26:32Z</time>
      </trkpt>
      <trkpt lat="45.75154" lon="4.30336">
        <ele>486</ele>
        <time>2012-03-25T09:26:45Z</time>
      </trkpt>
      <trkpt lat="45.75181" lon="4.30323">
        <ele>489</ele>
        <time>2012-03-25T09:27:04Z</time>
      </trkpt>
      <trkpt lat="45.75207" lon="4.30317">
        <ele>491</ele>
        <time>2012-03-25T09:27:24Z</time>
      </trkpt>
      <trkpt lat="45.75234" lon="4.30306">
        <ele>493</ele>
        <time>2012-03-25T09:27:43Z</time>
      </trkpt>
      <trkpt lat="45.75258" lon="4.30296">
        <ele>493</ele>
        <time>2012-03-25T09:27:59Z</time>
      </trkpt>
      <trkpt lat="45.75262" lon="4.30294">
        <ele>493</ele>
        <time>2012-03-25T09:28:02Z</time>
      </trkpt>
      <trkpt lat="45.75265" lon="4.30291">
        <ele>494</ele>
        <time>2012-03-25T09:28:05Z</time>
      </trkpt>
      <trkpt lat="45.75286" lon="4.30267">
        <ele>493</ele>
        <time>2012-03-25T09:28:24Z</time>
      </trkpt>
      <trkpt lat="45.75289" lon="4.30263">
        <ele>493</ele>
        <time>2012-03-25T09:28:27Z</time>
      </trkpt>
      <trkpt lat="45.75295" lon="4.30265">
        <ele>493</ele>
        <time>2012-03-25T09:28:32Z</time>
      </trkpt>
      <trkpt lat="45.75316" lon="4.30289">
        <ele>494</ele>
        <time>2012-03-25T09:28:51Z</time>
      </trkpt>
      <trkpt lat="45.75325" lon="4.303">
        <ele>495</ele>
        <time>2012-03-25T09:29:06Z</time>
      </trkpt>
      <trkpt lat="45.75329" lon="4.3031">
        <ele>495</ele>
        <time>2012-03-25T09:29:10Z</time>
      </trkpt>
      <trkpt lat="45.7535" lon="4.30339">
        <ele>496</ele>
        <time>2012-03-25T09:29:28Z</time>
      </trkpt>
      <trkpt lat="45.75366" lon="4.30365">
        <ele>497</ele>
        <time>2012-03-25T09:29:47Z</time>
      </trkpt>
      <trkpt lat="45.75386" lon="4.30391">
        <ele>498</ele>
        <time>2012-03-25T09:30:06Z</time>
      </trkpt>
      <trkpt lat="45.754" lon="4.30416">
        <ele>497</ele>
        <time>2012-03-25T09:30:22Z</time>
      </trkpt>
      <trkpt lat="45.75415" lon="4.3044">
        <ele>498</ele>
        <time>2012-03-25T09:30:39Z</time>
      </trkpt>
      <trkpt lat="45.75429" lon="4.30463">
        <ele>498</ele>
        <time>2012-03-25T09:30:56Z</time>
      </trkpt>
      <trkpt lat="45.7544" lon="4.30483">
        <ele>499</ele>
        <time>2012-03-25T09:31:14Z</time>
      </trkpt>
      <trkpt lat="45.75456" lon="4.30509">
        <ele>499</ele>
        <time>2012-03-25T09:31:31Z</time>
      </trkpt>
      <trkpt lat="45.75478" lon="4.30535">
        <ele>499</ele>
        <time>2012-03-25T09:31:48Z</time>
      </trkpt>
      <trkpt lat="45.75481" lon="4.30541">
        <ele>499</ele>
        <time>2012-03-25T09:31:52Z</time>
      </trkpt>
      <trkpt lat="45.75497" lon="4.30567">
        <ele>495</ele>
        <time>2012-03-25T09:32:07Z</time>
      </trkpt>
      <trkpt lat="45.75497" lon="4.30569">
        <ele>500</ele>
        <time>2012-03-25T09:32:08Z</time>
      </trkpt>
      <trkpt lat="45.75513" lon="4.30587">
        <ele>499</ele>
        <time>2012-03-25T09:32:22Z</time>
      </trkpt>
      <trkpt lat="45.75529" lon="4.30607">
        <ele>499</ele>
        <time>2012-03-25T09:32:36Z</time>
      </trkpt>
      <trkpt lat="45.75551" lon="4.3063">
        <ele>497</ele>
        <time>2012-03-25T09:32:52Z</time>
      </trkpt>
      <trkpt lat="45.75552" lon="4.30631">
        <ele>500</ele>
        <time>2012-03-25T09:32:53Z</time>
      </trkpt>
      <trkpt lat="45.75556" lon="4.30636">
        <ele>491</ele>
        <time>2012-03-25T09:32:56Z</time>
      </trkpt>
      <trkpt lat="45.75557" lon="4.30638">
        <ele>501</ele>
        <time>2012-03-25T09:32:57Z</time>
      </trkpt>
      <trkpt lat="45.7556" lon="4.30642">
        <ele>504</ele>
        <time>2012-03-25T09:33:00Z</time>
      </trkpt>
      <trkpt lat="45.75562" lon="4.30643">
        <ele>499</ele>
        <time>2012-03-25T09:33:01Z</time>
      </trkpt>
      <trkpt lat="45.7558" lon="4.30661">
        <ele>499</ele>
        <time>2012-03-25T09:33:16Z</time>
      </trkpt>
      <trkpt lat="45.75587" lon="4.30669">
        <ele>506</ele>
        <time>2012-03-25T09:33:22Z</time>
      </trkpt>
      <trkpt lat="45.75588" lon="4.3067">
        <ele>499</ele>
        <time>2012-03-25T09:33:23Z</time>
      </trkpt>
      <trkpt lat="45.75605" lon="4.3069">
        <ele>499</ele>
        <time>2012-03-25T09:33:39Z</time>
      </trkpt>
      <trkpt lat="45.75615" lon="4.30703">
        <ele>499</ele>
        <time>2012-03-25T09:33:48Z</time>
      </trkpt>
      <trkpt lat="45.75627" lon="4.30717">
        <ele>502</ele>
        <time>2012-03-25T09:33:58Z</time>
      </trkpt>
      <trkpt lat="45.75628" lon="4.30718">
        <ele>500</ele>
        <time>2012-03-25T09:33:59Z</time>
      </trkpt>
      <trkpt lat="45.75637" lon="4.30729">
        <ele>496</ele>
        <time>2012-03-25T09:34:07Z</time>
      </trkpt>
      <trkpt lat="45.75638" lon="4.3073">
        <ele>500</ele>
        <time>2012-03-25T09:34:08Z</time>
      </trkpt>
      <trkpt lat="45.75654" lon="4.30749">
        <ele>503</ele>
        <time>2012-03-25T09:34:23Z</time>
      </trkpt>
      <trkpt lat="45.75655" lon="4.3075">
        <ele>500</ele>
        <time>2012-03-25T09:34:24Z</time>
      </trkpt>
      <trkpt lat="45.75673" lon="4.30772">
        <ele>500</ele>
        <time>2012-03-25T09:34:41Z</time>
      </trkpt>
      <trkpt lat="45.75689" lon="4.3079">
        <ele>500</ele>
        <time>2012-03-25T09:34:55Z</time>
      </trkpt>
      <trkpt lat="45.75703" lon="4.3081">
        <ele>501</ele>
        <time>2012-03-25T09:35:10Z</time>
      </trkpt>
      <trkpt lat="45.75718" lon="4.30827">
        <ele>501</ele>
        <time>2012-03-25T09:35:24Z</time>
      </trkpt>
      <trkpt lat="45.75737" lon="4.3085">
        <ele>502</ele>
        <time>2012-03-25T09:35:42Z</time>
      </trkpt>
      <trkpt lat="45.75756" lon="4.30871">
        <ele>502</ele>
        <time>2012-03-25T09:36:00Z</time>
      </trkpt>
      <trkpt lat="45.75772" lon="4.30889">
        <ele>503</ele>
        <time>2012-03-25T09:36:15Z</time>
      </trkpt>
      <trkpt lat="45.75787" lon="4.30911">
        <ele>504</ele>
        <time>2012-03-25T09:36:30Z</time>
      </trkpt>
      <trkpt lat="45.75804" lon="4.30931">
        <ele>504</ele>
        <time>2012-03-25T09:36:44Z</time>
      </trkpt>
      <trkpt lat="45.75825" lon="4.30953">
        <ele>506</ele>
        <time>2012-03-25T09:37:02Z</time>
      </trkpt>
      <trkpt lat="45.75846" lon="4.30973">
        <ele>508</ele>
        <time>2012-03-25T09:37:20Z</time>
      </trkpt>
      <trkpt lat="45.75869" lon="4.30988">
        <ele>509</ele>
        <time>2012-03-25T09:37:37Z</time>
      </trkpt>
      <trkpt lat="45.75889" lon="4.31002">
        <ele>511</ele>
        <time>2012-03-25T09:37:54Z</time>
      </trkpt>
      <trkpt lat="45.75912" lon="4.31021">
        <ele>512</ele>
        <time>2012-03-25T09:38:12Z</time>
      </trkpt>
      <trkpt lat="45.75937" lon="4.31033">
        <ele>513</ele>
        <time>2012-03-25T09:38:30Z</time>
      </trkpt>
      <trkpt lat="45.75963" lon="4.3104">
        <ele>516</ele>
        <time>2012-03-25T09:38:48Z</time>
      </trkpt>
      <trkpt lat="45.75987" lon="4.31036">
        <ele>517</ele>
        <time>2012-03-25T09:39:04Z</time>
      </trkpt>
      <trkpt lat="45.76009" lon="4.31026">
        <ele>518</ele>
        <time>2012-03-25T09:39:19Z</time>
      </trkpt>
      <trkpt lat="45.76029" lon="4.3101">
        <ele>520</ele>
        <time>2012-03-25T09:39:33Z</time>
      </trkpt>
      <trkpt lat="45.7605" lon="4.31">
        <ele>522</ele>
        <time>2012-03-25T09:39:47Z</time>
      </trkpt>
      <trkpt lat="45.76054" lon="4.30999">
        <ele>522</ele>
        <time>2012-03-25T09:39:50Z</time>
      </trkpt>
      <trkpt lat="45.76056" lon="4.30986">
        <ele>523</ele>
        <time>2012-03-25T09:40:02Z</time>
      </trkpt>
      <trkpt lat="45.76056" lon="4.30986">
        <ele>523</ele>
        <time>2012-03-25T09:40:04Z</time>
      </trkpt>
      <trkpt lat="45.76048" lon="4.30979">
        <ele>522</ele>
        <time>2012-03-25T09:40:12Z</time>
      </trkpt>
      <trkpt lat="45.7603" lon="4.30963">
        <ele>521</ele>
        <time>2012-03-25T09:40:25Z</time>
      </trkpt>
      <trkpt lat="45.7602" lon="4.30947">
        <ele>520</ele>
        <time>2012-03-25T09:40:35Z</time>
      </trkpt>
      <trkpt lat="45.76012" lon="4.30933">
        <ele>519</ele>
        <time>2012-03-25T09:40:43Z</time>
      </trkpt>
      <trkpt lat="45.75998" lon="4.30909">
        <ele>518</ele>
        <time>2012-03-25T09:40:58Z</time>
      </trkpt>
      <trkpt lat="45.75995" lon="4.30905">
        <ele>518</ele>
        <time>2012-03-25T09:41:01Z</time>
      </trkpt>
      <trkpt lat="45.75983" lon="4.30885">
        <ele>515</ele>
        <time>2012-03-25T09:41:15Z</time>
      </trkpt>
      <trkpt lat="45.75972" lon="4.30864">
        <ele>513</ele>
        <time>2012-03-25T09:41:27Z</time>
      </trkpt>
      <trkpt lat="45.75961" lon="4.3084">
        <ele>511</ele>
        <time>2012-03-25T09:41:41Z</time>
      </trkpt>
      <trkpt lat="45.75956" lon="4.30815">
        <ele>509</ele>
        <time>2012-03-25T09:41:55Z</time>
      </trkpt>
      <trkpt lat="45.75958" lon="4.30797">
        <ele>508</ele>
        <time>2012-03-25T09:42:03Z</time>
      </trkpt>
      <trkpt lat="45.7596" lon="4.30772">
        <ele>507</ele>
        <time>2012-03-25T09:42:15Z</time>
      </trkpt>
      <trkpt lat="45.75964" lon="4.30749">
        <ele>505</ele>
        <time>2012-03-25T09:42:26Z</time>
      </trkpt>
      <trkpt lat="45.75963" lon="4.30738">
        <ele>504</ele>
        <time>2012-03-25T09:42:31Z</time>
      </trkpt>
      <trkpt lat="45.75968" lon="4.30696">
        <ele>502</ele>
        <time>2012-03-25T09:42:49Z</time>
      </trkpt>
      <trkpt lat="45.75972" lon="4.30669">
        <ele>501</ele>
        <time>2012-03-25T09:43:03Z</time>
      </trkpt>
      <trkpt lat="45.75975" lon="4.3064">
        <ele>500</ele>
        <time>2012-03-25T09:43:18Z</time>
      </trkpt>
      <trkpt lat="45.75979" lon="4.30619">
        <ele>499</ele>
        <time>2012-03-25T09:43:27Z</time>
      </trkpt>
      <trkpt lat="45.75979" lon="4.30592">
        <ele>497</ele>
        <time>2012-03-25T09:43:40Z</time>
      </trkpt>
      <trkpt lat="45.75978" lon="4.30563">
        <ele>496</ele>
        <time>2012-03-25T09:43:52Z</time>
      </trkpt>
      <trkpt lat="45.75978" lon="4.30555">
        <ele>496</ele>
        <time>2012-03-25T09:43:56Z</time>
      </trkpt>
      <trkpt lat="45.75978" lon="4.30524">
        <ele>494</ele>
        <time>2012-03-25T09:44:11Z</time>
      </trkpt>
      <trkpt lat="45.75979" lon="4.30493">
        <ele>492</ele>
        <time>2012-03-25T09:44:27Z</time>
      </trkpt>
      <trkpt lat="45.75978" lon="4.30489">
        <ele>492</ele>
        <time>2012-03-25T09:44:29Z</time>
      </trkpt>
      <trkpt lat="45.75979" lon="4.30473">
        <ele>490</ele>
        <time>2012-03-25T09:44:41Z</time>
      </trkpt>
      <trkpt lat="45.75978" lon="4.30448">
        <ele>488</ele>
        <time>2012-03-25T09:44:53Z</time>
      </trkpt>
      <trkpt lat="45.75978" lon="4.30427">
        <ele>486</ele>
        <time>2012-03-25T09:45:06Z</time>
      </trkpt>
      <trkpt lat="45.75976" lon="4.30399">
        <ele>483</ele>
        <time>2012-03-25T09:45:19Z</time>
      </trkpt>
      <trkpt lat="45.75973" lon="4.30381">
        <ele>480</ele>
        <time>2012-03-25T09:45:32Z</time>
      </trkpt>
      <trkpt lat="45.7597" lon="4.30367">
        <ele>477</ele>
        <time>2012-03-25T09:45:45Z</time>
      </trkpt>
      <trkpt lat="45.75967" lon="4.30343">
        <ele>474</ele>
        <time>2012-03-25T09:45:56Z</time>
      </trkpt>
      <trkpt lat="45.75966" lon="4.30338">
        <ele>473</ele>
        <time>2012-03-25T09:45:58Z</time>
      </trkpt>
      <trkpt lat="45.75968" lon="4.30324">
        <ele>472</ele>
        <time>2012-03-25T09:46:04Z</time>
      </trkpt>
      <trkpt lat="45.7597" lon="4.30306">
        <ele>470</ele>
        <time>2012-03-25T09:46:12Z</time>
      </trkpt>
      <trkpt lat="45.75973" lon="4.30286">
        <ele>468</ele>
        <time>2012-03-25T09:46:22Z</time>
      </trkpt>
      <trkpt lat="45.75977" lon="4.30266">
        <ele>466</ele>
        <time>2012-03-25T09:46:33Z</time>
      </trkpt>
      <trkpt lat="45.75983" lon="4.30237">
        <ele>464</ele>
        <time>2012-03-25T09:46:46Z</time>
      </trkpt>
      <trkpt lat="45.75986" lon="4.30224">
        <ele>461</ele>
        <time>2012-03-25T09:47:01Z</time>
      </trkpt>
      <trkpt lat="45.75986" lon="4.30211">
        <ele>459</ele>
        <time>2012-03-25T09:47:07Z</time>
      </trkpt>
      <trkpt lat="45.75984" lon="4.30186">
        <ele>456</ele>
        <time>2012-03-25T09:47:18Z</time>
      </trkpt>
      <trkpt lat="45.75984" lon="4.30158">
        <ele>453</ele>
        <time>2012-03-25T09:47:30Z</time>
      </trkpt>
      <trkpt lat="45.75982" lon="4.30145">
        <ele>451</ele>
        <time>2012-03-25T09:47:37Z</time>
      </trkpt>
      <trkpt lat="45.75989" lon="4.30133">
        <ele>448</ele>
        <time>2012-03-25T09:47:50Z</time>
      </trkpt>
      <trkpt lat="45.75993" lon="4.3013">
        <ele>447</ele>
        <time>2012-03-25T09:48:00Z</time>
      </trkpt>
      <trkpt lat="45.76" lon="4.30151">
        <ele>447</ele>
        <time>2012-03-25T09:48:15Z</time>
      </trkpt>
      <trkpt lat="45.76011" lon="4.30163">
        <ele>449</ele>
        <time>2012-03-25T09:48:31Z</time>
      </trkpt>
      <trkpt lat="45.76017" lon="4.30147">
        <ele>449</ele>
        <time>2012-03-25T09:48:39Z</time>
      </trkpt>
      <trkpt lat="45.76016" lon="4.30115">
        <ele>448</ele>
        <time>2012-03-25T09:48:55Z</time>
      </trkpt>
      <trkpt lat="45.7601" lon="4.30085">
        <ele>448</ele>
        <time>2012-03-25T09:49:11Z</time>
      </trkpt>
      <trkpt lat="45.76006" lon="4.30065">
        <ele>448</ele>
        <time>2012-03-25T09:49:24Z</time>
      </trkpt>
      <trkpt lat="45.76005" lon="4.30061">
        <ele>447</ele>
        <time>2012-03-25T09:49:27Z</time>
      </trkpt>
      <trkpt lat="45.76002" lon="4.30047">
        <ele>447</ele>
        <time>2012-03-25T09:49:35Z</time>
      </trkpt>
      <trkpt lat="45.76001" lon="4.30043">
        <ele>447</ele>
        <time>2012-03-25T09:49:37Z</time>
      </trkpt>
      <trkpt lat="45.75998" lon="4.30035">
        <ele>447</ele>
        <time>2012-03-25T09:49:41Z</time>
      </trkpt>
      <trkpt lat="45.75988" lon="4.30001">
        <ele>445</ele>
        <time>2012-03-25T09:49:55Z</time>
      </trkpt>
      <trkpt lat="45.75987" lon="4.29997">
        <ele>446</ele>
        <time>2012-03-25T09:49:57Z</time>
      </trkpt>
      <trkpt lat="45.75986" lon="4.29994">
        <ele>445</ele>
        <time>2012-03-25T09:49:59Z</time>
      </trkpt>
      <trkpt lat="45.75984" lon="4.29985">
        <ele>445</ele>
        <time>2012-03-25T09:50:04Z</time>
      </trkpt>
      <trkpt lat="45.75985" lon="4.29954">
        <ele>444</ele>
        <time>2012-03-25T09:50:18Z</time>
      </trkpt>
      <trkpt lat="45.75985" lon="4.29949">
        <ele>443</ele>
        <time>2012-03-25T09:50:20Z</time>
      </trkpt>
      <trkpt lat="45.75992" lon="4.29927">
        <ele>442</ele>
        <time>2012-03-25T09:50:30Z</time>
      </trkpt>
      <trkpt lat="45.75998" lon="4.29894">
        <ele>440</ele>
        <time>2012-03-25T09:50:44Z</time>
      </trkpt>
      <trkpt lat="45.75999" lon="4.29891">
        <ele>440</ele>
        <time>2012-03-25T09:50:46Z</time>
      </trkpt>
      <trkpt lat="45.76001" lon="4.29877">
        <ele>440</ele>
        <time>2012-03-25T09:50:53Z</time>
      </trkpt>
      <trkpt lat="45.76003" lon="4.29849">
        <ele>439</ele>
        <time>2012-03-25T09:51:04Z</time>
      </trkpt>
      <trkpt lat="45.76006" lon="4.29832">
        <ele>439</ele>
        <time>2012-03-25T09:51:12Z</time>
      </trkpt>
      <trkpt lat="45.76011" lon="4.29802">
        <ele>439</ele>
        <time>2012-03-25T09:51:25Z</time>
      </trkpt>
      <trkpt lat="45.76019" lon="4.29769">
        <ele>438</ele>
        <time>2012-03-25T09:51:40Z</time>
      </trkpt>
      <trkpt lat="45.76023" lon="4.29739">
        <ele>438</ele>
        <time>2012-03-25T09:51:54Z</time>
      </trkpt>
      <trkpt lat="45.76029" lon="4.29715">
        <ele>438</ele>
        <time>2012-03-25T09:52:06Z</time>
      </trkpt>
      <trkpt lat="45.76033" lon="4.29679">
        <ele>438</ele>
        <time>2012-03-25T09:52:23Z</time>
      </trkpt>
      <trkpt lat="45.76036" lon="4.29653">
        <ele>438</ele>
        <time>2012-03-25T09:52:36Z</time>
      </trkpt>
      <trkpt lat="45.76038" lon="4.29645">
        <ele>437</ele>
        <time>2012-03-25T09:52:40Z</time>
      </trkpt>
      <trkpt lat="45.76042" lon="4.29616">
        <ele>435</ele>
        <time>2012-03-25T09:52:54Z</time>
      </trkpt>
      <trkpt lat="45.76046" lon="4.29602">
        <ele>434</ele>
        <time>2012-03-25T09:53:01Z</time>
      </trkpt>
      <trkpt lat="45.76057" lon="4.29578">
        <ele>432</ele>
        <time>2012-03-25T09:53:15Z</time>
      </trkpt>
      <trkpt lat="45.76066" lon="4.29552">
        <ele>429</ele>
        <time>2012-03-25T09:53:29Z</time>
      </trkpt>
      <trkpt lat="45.76074" lon="4.2953">
        <ele>427</ele>
        <time>2012-03-25T09:53:41Z</time>
      </trkpt>
      <trkpt lat="45.76076" lon="4.29522">
        <ele>427</ele>
        <time>2012-03-25T09:53:46Z</time>
      </trkpt>
      <trkpt lat="45.76077" lon="4.29516">
        <ele>427</ele>
        <time>2012-03-25T09:53:49Z</time>
      </trkpt>
      <trkpt lat="45.76072" lon="4.29494">
        <ele>426</ele>
        <time>2012-03-25T09:54:03Z</time>
      </trkpt>
      <trkpt lat="45.7607" lon="4.29475">
        <ele>425</ele>
        <time>2012-03-25T09:54:16Z</time>
      </trkpt>
      <trkpt lat="45.76069" lon="4.29469">
        <ele>425</ele>
        <time>2012-03-25T09:54:20Z</time>
      </trkpt>
      <trkpt lat="45.7607" lon="4.29447">
        <ele>423</ele>
        <time>2012-03-25T09:54:31Z</time>
      </trkpt>
      <trkpt lat="45.76068" lon="4.29428">
        <ele>422</ele>
        <time>2012-03-25T09:54:39Z</time>
      </trkpt>
      <trkpt lat="45.76071" lon="4.29397">
        <ele>421</ele>
        <time>2012-03-25T09:54:52Z</time>
      </trkpt>
      <trkpt lat="45.76079" lon="4.29382">
        <ele>420</ele>
        <time>2012-03-25T09:55:02Z</time>
      </trkpt>
      <trkpt lat="45.76082" lon="4.2938">
        <ele>420</ele>
        <time>2012-03-25T09:55:05Z</time>
      </trkpt>
      <trkpt lat="45.7611" lon="4.29349">
        <ele>419</ele>
        <time>2012-03-25T09:55:17Z</time>
      </trkpt>
      <trkpt lat="45.76132" lon="4.29329">
        <ele>419</ele>
        <time>2012-03-25T09:55:21Z</time>
      </trkpt>
      <trkpt lat="45.76142" lon="4.29315">
        <ele>417</ele>
        <time>2012-03-25T09:55:23Z</time>
      </trkpt>
      <trkpt lat="45.762" lon="4.29246">
        <ele>417</ele>
        <time>2012-03-25T09:55:34Z</time>
      </trkpt>
      <trkpt lat="45.7622" lon="4.29218">
        <ele>417</ele>
        <time>2012-03-25T09:55:43Z</time>
      </trkpt>
      <trkpt lat="45.7624" lon="4.29192">
        <ele>416</ele>
        <time>2012-03-25T09:55:58Z</time>
      </trkpt>
      <trkpt lat="45.76253" lon="4.29173">
        <ele>414</ele>
        <time>2012-03-25T09:56:12Z</time>
      </trkpt>
      <trkpt lat="45.76259" lon="4.29148">
        <ele>412</ele>
        <time>2012-03-25T09:56:27Z</time>
      </trkpt>
      <trkpt lat="45.7626" lon="4.29126">
        <ele>410</ele>
        <time>2012-03-25T09:56:41Z</time>
      </trkpt>
      <trkpt lat="45.76264" lon="4.29108">
        <ele>409</ele>
        <time>2012-03-25T09:56:51Z</time>
      </trkpt>
      <trkpt lat="45.76265" lon="4.29108">
        <ele>409</ele>
        <time>2012-03-25T09:56:52Z</time>
      </trkpt>
      <trkpt lat="45.76266" lon="4.29109">
        <ele>409</ele>
        <time>2012-03-25T09:56:54Z</time>
      </trkpt>
      <trkpt lat="45.76267" lon="4.2911">
        <ele>409</ele>
        <time>2012-03-25T09:56:55Z</time>
      </trkpt>
      <trkpt lat="45.76268" lon="4.29111">
        <ele>409</ele>
        <time>2012-03-25T09:56:56Z</time>
      </trkpt>
      <trkpt lat="45.7627" lon="4.29111">
        <ele>409</ele>
        <time>2012-03-25T09:56:57Z</time>
      </trkpt>
      <trkpt lat="45.76271" lon="4.29111">
        <ele>409</ele>
        <time>2012-03-25T09:56:58Z</time>
      </trkpt>
      <trkpt lat="45.76273" lon="4.29112">
        <ele>408</ele>
        <time>2012-03-25T09:56:59Z</time>
      </trkpt>
      <trkpt lat="45.76281" lon="4.29123">
        <ele>408</ele>
        <time>2012-03-25T09:57:10Z</time>
      </trkpt>
      <trkpt lat="45.76282" lon="4.29125">
        <ele>408</ele>
        <time>2012-03-25T09:57:11Z</time>
      </trkpt>
      <trkpt lat="45.76288" lon="4.29151">
        <ele>407</ele>
        <time>2012-03-25T09:57:26Z</time>
      </trkpt>
      <trkpt lat="45.76294" lon="4.2917">
        <ele>405</ele>
        <time>2012-03-25T09:57:39Z</time>
      </trkpt>
      <trkpt lat="45.76297" lon="4.29172">
        <ele>403</ele>
        <time>2012-03-25T09:57:50Z</time>
      </trkpt>
      <trkpt lat="45.76301" lon="4.29174">
        <ele>402</ele>
        <time>2012-03-25T09:58:01Z</time>
      </trkpt>
      <trkpt lat="45.76316" lon="4.2918">
        <ele>401</ele>
        <time>2012-03-25T09:58:07Z</time>
      </trkpt>
      <trkpt lat="45.76324" lon="4.29182">
        <ele>401</ele>
        <time>2012-03-25T09:58:11Z</time>
      </trkpt>
      <trkpt lat="45.7633" lon="4.29183">
        <ele>401</ele>
        <time>2012-03-25T09:58:16Z</time>
      </trkpt>
      <trkpt lat="45.76331" lon="4.29184">
        <ele>401</ele>
        <time>2012-03-25T09:58:17Z</time>
      </trkpt>
      <trkpt lat="45.76339" lon="4.29186">
        <ele>401</ele>
        <time>2012-03-25T09:58:21Z</time>
      </trkpt>
      <trkpt lat="45.76343" lon="4.29187">
        <ele>401</ele>
        <time>2012-03-25T09:58:23Z</time>
      </trkpt>
      <trkpt lat="45.76373" lon="4.29196">
        <ele>400</ele>
        <time>2012-03-25T09:58:41Z</time>
      </trkpt>
      <trkpt lat="45.76381" lon="4.29199">
        <ele>399</ele>
        <time>2012-03-25T09:58:46Z</time>
      </trkpt>
      <trkpt lat="45.76405" lon="4.29201">
        <ele>398</ele>
        <time>2012-03-25T09:59:01Z</time>
      </trkpt>
      <trkpt lat="45.7642" lon="4.29203">
        <ele>398</ele>
        <time>2012-03-25T09:59:09Z</time>
      </trkpt>
      <trkpt lat="45.76429" lon="4.29201">
        <ele>398</ele>
        <time>2012-03-25T09:59:15Z</time>
      </trkpt>
      <trkpt lat="45.76426" lon="4.292">
        <ele>396</ele>
        <time>2012-03-25T09:59:18Z</time>
      </trkpt>
      <trkpt lat="45.76423" lon="4.292">
        <ele>396</ele>
        <time>2012-03-25T09:59:19Z</time>
      </trkpt>
      <trkpt lat="45.76407" lon="4.29195">
        <ele>396</ele>
        <time>2012-03-25T09:59:30Z</time>
      </trkpt>
      <trkpt lat="45.76384" lon="4.29192">
        <ele>396</ele>
        <time>2012-03-25T09:59:43Z</time>
      </trkpt>
      <trkpt lat="45.76368" lon="4.29188">
        <ele>396</ele>
        <time>2012-03-25T09:59:48Z</time>
      </trkpt>
      <trkpt lat="45.7635" lon="4.29184">
        <ele>396</ele>
        <time>2012-03-25T09:59:52Z</time>
      </trkpt>
      <trkpt lat="45.76345" lon="4.29182">
        <ele>396</ele>
        <time>2012-03-25T09:59:53Z</time>
      </trkpt>
      <trkpt lat="45.76341" lon="4.29179">
        <ele>396</ele>
        <time>2012-03-25T09:59:54Z</time>
      </trkpt>
      <trkpt lat="45.76337" lon="4.29174">
        <ele>395</ele>
        <time>2012-03-25T09:59:55Z</time>
      </trkpt>
      <trkpt lat="45.76334" lon="4.2917">
        <ele>395</ele>
        <time>2012-03-25T09:59:56Z</time>
      </trkpt>
      <trkpt lat="45.76332" lon="4.29165">
        <ele>395</ele>
        <time>2012-03-25T09:59:57Z</time>
      </trkpt>
      <trkpt lat="45.76329" lon="4.29161">
        <ele>395</ele>
        <time>2012-03-25T09:59:58Z</time>
      </trkpt>
      <trkpt lat="45.76327" lon="4.29159">
        <ele>395</ele>
        <time>2012-03-25T09:59:59Z</time>
      </trkpt>
      <trkpt lat="45.76312" lon="4.29128">
        <ele>395</ele>
        <time>2012-03-25T10:00:15Z</time>
      </trkpt>
      <trkpt lat="45.76312" lon="4.29128">
        <ele>395</ele>
        <time>2012-03-25T10:00:18Z</time>
      </trkpt>
      <trkpt lat="45.76311" lon="4.29125">
        <ele>395</ele>
        <time>2012-03-25T10:00:19Z</time>
      </trkpt>
      <trkpt lat="45.7631" lon="4.29122">
        <ele>395</ele>
        <time>2012-03-25T10:00:20Z</time>
      </trkpt>
      <trkpt lat="45.76308" lon="4.29118">
        <ele>395</ele>
        <time>2012-03-25T10:00:21Z</time>
      </trkpt>
      <trkpt lat="45.76307" lon="4.29115">
        <ele>395</ele>
        <time>2012-03-25T10:00:22Z</time>
      </trkpt>
      <trkpt lat="45.76306" lon="4.29113">
        <ele>395</ele>
        <time>2012-03-25T10:00:23Z</time>
      </trkpt>
      <trkpt lat="45.76302" lon="4.29101">
        <ele>395</ele>
        <time>2012-03-25T10:00:29Z</time>
      </trkpt>
      <trkpt lat="45.76291" lon="4.29076">
        <ele>395</ele>
        <time>2012-03-25T10:00:42Z</time>
      </trkpt>
      <trkpt lat="45.76285" lon="4.29059">
        <ele>395</ele>
        <time>2012-03-25T10:00:51Z</time>
      </trkpt>
      <trkpt lat="45.76277" lon="4.29046">
        <ele>395</ele>
        <time>2012-03-25T10:01:03Z</time>
      </trkpt>
      <trkpt lat="45.76276" lon="4.29044">
        <ele>395</ele>
        <time>2012-03-25T10:01:04Z</time>
      </trkpt>
      <trkpt lat="45.76263" lon="4.29011">
        <ele>394</ele>
        <time>2012-03-25T10:01:18Z</time>
      </trkpt>
      <trkpt lat="45.76239" lon="4.28981">
        <ele>393</ele>
        <time>2012-03-25T10:01:36Z</time>
      </trkpt>
      <trkpt lat="45.76211" lon="4.2896">
        <ele>393</ele>
        <time>2012-03-25T10:01:53Z</time>
      </trkpt>
      <trkpt lat="45.76187" lon="4.28951">
        <ele>393</ele>
        <time>2012-03-25T10:02:07Z</time>
      </trkpt>
      <trkpt lat="45.76164" lon="4.28946">
        <ele>393</ele>
        <time>2012-03-25T10:02:20Z</time>
      </trkpt>
      <trkpt lat="45.76141" lon="4.28947">
        <ele>392</ele>
        <time>2012-03-25T10:02:35Z</time>
      </trkpt>
      <trkpt lat="45.76112" lon="4.28946">
        <ele>391</ele>
        <time>2012-03-25T10:02:49Z</time>
      </trkpt>
      <trkpt lat="45.76089" lon="4.28946">
        <ele>391</ele>
        <time>2012-03-25T10:03:03Z</time>
      </trkpt>
      <trkpt lat="45.76059" lon="4.2895">
        <ele>391</ele>
        <time>2012-03-25T10:03:19Z</time>
      </trkpt>
      <trkpt lat="45.76034" lon="4.28953">
        <ele>390</ele>
        <time>2012-03-25T10:03:35Z</time>
      </trkpt>
      <trkpt lat="45.76009" lon="4.28947">
        <ele>390</ele>
        <time>2012-03-25T10:03:49Z</time>
      </trkpt>
      <trkpt lat="45.75981" lon="4.28948">
        <ele>390</ele>
        <time>2012-03-25T10:04:04Z</time>
      </trkpt>
      <trkpt lat="45.75967" lon="4.28948">
        <ele>390</ele>
        <time>2012-03-25T10:04:17Z</time>
      </trkpt>
      <trkpt lat="45.75966" lon="4.28948">
        <ele>390</ele>
        <time>2012-03-25T10:04:18Z</time>
      </trkpt>
      <trkpt lat="45.75959" lon="4.28948">
        <ele>390</ele>
        <time>2012-03-25T10:04:22Z</time>
      </trkpt>
      <trkpt lat="45.75957" lon="4.28948">
        <ele>390</ele>
        <time>2012-03-25T10:04:23Z</time>
      </trkpt>
      <trkpt lat="45.75955" lon="4.28947">
        <ele>390</ele>
        <time>2012-03-25T10:04:24Z</time>
      </trkpt>
      <trkpt lat="45.75953" lon="4.28945">
        <ele>389</ele>
        <time>2012-03-25T10:04:25Z</time>
      </trkpt>
      <trkpt lat="45.75951" lon="4.28943">
        <ele>389</ele>
        <time>2012-03-25T10:04:26Z</time>
      </trkpt>
      <trkpt lat="45.75949" lon="4.2894">
        <ele>389</ele>
        <time>2012-03-25T10:04:27Z</time>
      </trkpt>
      <trkpt lat="45.75928" lon="4.28915">
        <ele>389</ele>
        <time>2012-03-25T10:04:41Z</time>
      </trkpt>
      <trkpt lat="45.75907" lon="4.28887">
        <ele>388</ele>
        <time>2012-03-25T10:04:56Z</time>
      </trkpt>
      <trkpt lat="45.75887" lon="4.28864">
        <ele>387</ele>
        <time>2012-03-25T10:05:14Z</time>
      </trkpt>
      <trkpt lat="45.75879" lon="4.28854">
        <ele>387</ele>
        <time>2012-03-25T10:05:20Z</time>
      </trkpt>
      <trkpt lat="45.7587" lon="4.28845">
        <ele>386</ele>
        <time>2012-03-25T10:05:29Z</time>
      </trkpt>
      <trkpt lat="45.75868" lon="4.28842">
        <ele>386</ele>
        <time>2012-03-25T10:05:31Z</time>
      </trkpt>
      <trkpt lat="45.75865" lon="4.28837">
        <ele>386</ele>
        <time>2012-03-25T10:05:34Z</time>
      </trkpt>
      <trkpt lat="45.7585" lon="4.28824">
        <ele>385</ele>
        <time>2012-03-25T10:05:49Z</time>
      </trkpt>
      <trkpt lat="45.75842" lon="4.28815">
        <ele>385</ele>
        <time>2012-03-25T10:05:55Z</time>
      </trkpt>
      <trkpt lat="45.75835" lon="4.2881">
        <ele>385</ele>
        <time>2012-03-25T10:06:08Z</time>
      </trkpt>
      <trkpt lat="45.75832" lon="4.28807">
        <ele>384</ele>
        <time>2012-03-25T10:06:22Z</time>
      </trkpt>
      <trkpt lat="45.75809" lon="4.2879">
        <ele>384</ele>
        <time>2012-03-25T10:06:34Z</time>
      </trkpt>
      <trkpt lat="45.75803" lon="4.28777">
        <ele>384</ele>
        <time>2012-03-25T10:06:41Z</time>
      </trkpt>
      <trkpt lat="45.75801" lon="4.28774">
        <ele>384</ele>
        <time>2012-03-25T10:06:43Z</time>
      </trkpt>
      <trkpt lat="45.75793" lon="4.28741">
        <ele>383</ele>
        <time>2012-03-25T10:06:57Z</time>
      </trkpt>
      <trkpt lat="45.7579" lon="4.28728">
        <ele>383</ele>
        <time>2012-03-25T10:07:00Z</time>
      </trkpt>
      <trkpt lat="45.758" lon="4.28701">
        <ele>382</ele>
        <time>2012-03-25T10:07:14Z</time>
      </trkpt>
      <trkpt lat="45.75804" lon="4.28689">
        <ele>382</ele>
        <time>2012-03-25T10:07:20Z</time>
      </trkpt>
      <trkpt lat="45.75803" lon="4.28675">
        <ele>382</ele>
        <time>2012-03-25T10:07:26Z</time>
      </trkpt>
      <trkpt lat="45.75799" lon="4.28658">
        <ele>381</ele>
        <time>2012-03-25T10:07:33Z</time>
      </trkpt>
      <trkpt lat="45.75789" lon="4.2864">
        <ele>381</ele>
        <time>2012-03-25T10:07:43Z</time>
      </trkpt>
      <trkpt lat="45.75772" lon="4.28625">
        <ele>380</ele>
        <time>2012-03-25T10:07:57Z</time>
      </trkpt>
      <trkpt lat="45.75765" lon="4.28613">
        <ele>380</ele>
        <time>2012-03-25T10:08:03Z</time>
      </trkpt>
      <trkpt lat="45.75762" lon="4.2861">
        <ele>379</ele>
        <time>2012-03-25T10:08:05Z</time>
      </trkpt>
      <trkpt lat="45.75742" lon="4.28599">
        <ele>379</ele>
        <time>2012-03-25T10:08:17Z</time>
      </trkpt>
      <trkpt lat="45.75735" lon="4.28601">
        <ele>378</ele>
        <time>2012-03-25T10:08:20Z</time>
      </trkpt>
      <trkpt lat="45.75722" lon="4.28603">
        <ele>377</ele>
        <time>2012-03-25T10:08:29Z</time>
      </trkpt>
      <trkpt lat="45.7572" lon="4.28603">
        <ele>377</ele>
        <time>2012-03-25T10:08:30Z</time>
      </trkpt>
      <trkpt lat="45.75709" lon="4.28601">
        <ele>377</ele>
        <time>2012-03-25T10:08:37Z</time>
      </trkpt>
      <trkpt lat="45.75708" lon="4.28601">
        <ele>377</ele>
        <time>2012-03-25T10:08:38Z</time>
      </trkpt>
      <trkpt lat="45.757" lon="4.286">
        <ele>377</ele>
        <time>2012-03-25T10:08:44Z</time>
      </trkpt>
      <trkpt lat="45.75698" lon="4.28599">
        <ele>377</ele>
        <time>2012-03-25T10:08:45Z</time>
      </trkpt>
      <trkpt lat="45.75664" lon="4.28585">
        <ele>377</ele>
        <time>2012-03-25T10:09:00Z</time>
      </trkpt>
      <trkpt lat="45.75638" lon="4.28578">
        <ele>379</ele>
        <time>2012-03-25T10:09:13Z</time>
      </trkpt>
      <trkpt lat="45.75636" lon="4.28577">
        <ele>372</ele>
        <time>2012-03-25T10:09:14Z</time>
      </trkpt>
      <trkpt lat="45.75634" lon="4.28577">
        <ele>377</ele>
        <time>2012-03-25T10:09:15Z</time>
      </trkpt>
      <trkpt lat="45.75611" lon="4.28573">
        <ele>376</ele>
        <time>2012-03-25T10:09:29Z</time>
      </trkpt>
      <trkpt lat="45.75599" lon="4.28571">
        <ele>376</ele>
        <time>2012-03-25T10:09:35Z</time>
      </trkpt>
      <trkpt lat="45.75597" lon="4.2857">
        <ele>376</ele>
        <time>2012-03-25T10:09:36Z</time>
      </trkpt>
      <trkpt lat="45.75584" lon="4.28568">
        <ele>376</ele>
        <time>2012-03-25T10:09:45Z</time>
      </trkpt>
      <trkpt lat="45.75565" lon="4.28559">
        <ele>375</ele>
        <time>2012-03-25T10:09:56Z</time>
      </trkpt>
      <trkpt lat="45.75562" lon="4.28557">
        <ele>375</ele>
        <time>2012-03-25T10:09:58Z</time>
      </trkpt>
      <trkpt lat="45.7556" lon="4.28556">
        <ele>375</ele>
        <time>2012-03-25T10:09:59Z</time>
      </trkpt>
      <trkpt lat="45.75558" lon="4.28555">
        <ele>375</ele>
        <time>2012-03-25T10:10:00Z</time>
      </trkpt>
      <trkpt lat="45.75542" lon="4.28547">
        <ele>376</ele>
        <time>2012-03-25T10:10:10Z</time>
      </trkpt>
      <trkpt lat="45.75514" lon="4.28543">
        <ele>374</ele>
        <time>2012-03-25T10:10:24Z</time>
      </trkpt>
      <trkpt lat="45.75486" lon="4.28535">
        <ele>373</ele>
        <time>2012-03-25T10:10:38Z</time>
      </trkpt>
      <trkpt lat="45.75458" lon="4.28519">
        <ele>373</ele>
        <time>2012-03-25T10:10:52Z</time>
      </trkpt>
      <trkpt lat="45.75434" lon="4.28511">
        <ele>372</ele>
        <time>2012-03-25T10:11:08Z</time>
      </trkpt>
      <trkpt lat="45.7543" lon="4.28508">
        <ele>372</ele>
        <time>2012-03-25T10:11:10Z</time>
      </trkpt>
      <trkpt lat="45.7543" lon="4.28505">
        <ele>374</ele>
        <time>2012-03-25T10:11:21Z</time>
      </trkpt>
      <trkpt lat="45.75436" lon="4.28507">
        <ele>376</ele>
        <time>2012-03-25T10:11:34Z</time>
      </trkpt>
      <trkpt lat="45.75444" lon="4.28505">
        <ele>375</ele>
        <time>2012-03-25T10:11:41Z</time>
      </trkpt>
      <trkpt lat="45.75455" lon="4.28501">
        <ele>375</ele>
        <time>2012-03-25T10:11:48Z</time>
      </trkpt>
      <trkpt lat="45.75471" lon="4.2849">
        <ele>375</ele>
        <time>2012-03-25T10:12:00Z</time>
      </trkpt>
      <trkpt lat="45.75493" lon="4.28476">
        <ele>378</ele>
        <time>2012-03-25T10:12:13Z</time>
      </trkpt>
      <trkpt lat="45.75496" lon="4.28473">
        <ele>378</ele>
        <time>2012-03-25T10:12:15Z</time>
      </trkpt>
      <trkpt lat="45.75498" lon="4.2847">
        <ele>379</ele>
        <time>2012-03-25T10:12:16Z</time>
      </trkpt>
      <trkpt lat="45.7551" lon="4.28461">
        <ele>380</ele>
        <time>2012-03-25T10:12:25Z</time>
      </trkpt>
      <trkpt lat="45.75505" lon="4.28453">
        <ele>381</ele>
        <time>2012-03-25T10:12:35Z</time>
      </trkpt>
      <trkpt lat="45.75464" lon="4.28414">
        <ele>384</ele>
        <time>2012-03-25T10:12:52Z</time>
      </trkpt>
      <trkpt lat="45.75434" lon="4.28405">
        <ele>386</ele>
        <time>2012-03-25T10:13:07Z</time>
      </trkpt>
      <trkpt lat="45.75402" lon="4.28408">
        <ele>387</ele>
        <time>2012-03-25T10:13:25Z</time>
      </trkpt>
      <trkpt lat="45.75377" lon="4.28399">
        <ele>390</ele>
        <time>2012-03-25T10:13:40Z</time>
      </trkpt>
      <trkpt lat="45.75375" lon="4.28395">
        <ele>391</ele>
        <time>2012-03-25T10:13:42Z</time>
      </trkpt>
      <trkpt lat="45.75363" lon="4.28374">
        <ele>394</ele>
        <time>2012-03-25T10:13:56Z</time>
      </trkpt>
      <trkpt lat="45.75355" lon="4.28351">
        <ele>396</ele>
        <time>2012-03-25T10:14:06Z</time>
      </trkpt>
      <trkpt lat="45.75331" lon="4.28322">
        <ele>399</ele>
        <time>2012-03-25T10:14:25Z</time>
      </trkpt>
      <trkpt lat="45.75309" lon="4.28306">
        <ele>401</ele>
        <time>2012-03-25T10:14:41Z</time>
      </trkpt>
      <trkpt lat="45.75278" lon="4.28291">
        <ele>404</ele>
        <time>2012-03-25T10:15:00Z</time>
      </trkpt>
      <trkpt lat="45.75247" lon="4.28285">
        <ele>407</ele>
        <time>2012-03-25T10:15:16Z</time>
      </trkpt>
      <trkpt lat="45.75239" lon="4.28262">
        <ele>410</ele>
        <time>2012-03-25T10:15:27Z</time>
      </trkpt>
      <trkpt lat="45.75245" lon="4.28248">
        <ele>414</ele>
        <time>2012-03-25T10:15:38Z</time>
      </trkpt>
      <trkpt lat="45.75248" lon="4.2825">
        <ele>414</ele>
        <time>2012-03-25T10:15:44Z</time>
      </trkpt>
      <trkpt lat="45.75251" lon="4.2825">
        <ele>415</ele>
        <time>2012-03-25T10:15:47Z</time>
      </trkpt>
      <trkpt lat="45.75272" lon="4.28243">
        <ele>418</ele>
        <time>2012-03-25T10:16:01Z</time>
      </trkpt>
      <trkpt lat="45.75289" lon="4.28226">
        <ele>422</ele>
        <time>2012-03-25T10:16:14Z</time>
      </trkpt>
      <trkpt lat="45.75302" lon="4.282">
        <ele>424</ele>
        <time>2012-03-25T10:16:27Z</time>
      </trkpt>
      <trkpt lat="45.75313" lon="4.28172">
        <ele>427</ele>
        <time>2012-03-25T10:16:39Z</time>
      </trkpt>
      <trkpt lat="45.75327" lon="4.28144">
        <ele>430</ele>
        <time>2012-03-25T10:16:53Z</time>
      </trkpt>
      <trkpt lat="45.75348" lon="4.2813">
        <ele>432</ele>
        <time>2012-03-25T10:17:08Z</time>
      </trkpt>
      <trkpt lat="45.75374" lon="4.28117">
        <ele>432</ele>
        <time>2012-03-25T10:17:25Z</time>
      </trkpt>
      <trkpt lat="45.75405" lon="4.28102">
        <ele>434</ele>
        <time>2012-03-25T10:17:45Z</time>
      </trkpt>
      <trkpt lat="45.7544" lon="4.28085">
        <ele>436</ele>
        <time>2012-03-25T10:18:08Z</time>
      </trkpt>
      <trkpt lat="45.7547" lon="4.28069">
        <ele>438</ele>
        <time>2012-03-25T10:18:27Z</time>
      </trkpt>
      <trkpt lat="45.75497" lon="4.28053">
        <ele>439</ele>
        <time>2012-03-25T10:18:45Z</time>
      </trkpt>
      <trkpt lat="45.75518" lon="4.28049">
        <ele>439</ele>
        <time>2012-03-25T10:18:57Z</time>
      </trkpt>
      <trkpt lat="45.75547" lon="4.28039">
        <ele>441</ele>
        <time>2012-03-25T10:19:14Z</time>
      </trkpt>
      <trkpt lat="45.75568" lon="4.28032">
        <ele>442</ele>
        <time>2012-03-25T10:19:29Z</time>
      </trkpt>
      <trkpt lat="45.7557" lon="4.2803">
        <ele>442</ele>
        <time>2012-03-25T10:19:35Z</time>
      </trkpt>
      <trkpt lat="45.75577" lon="4.28028">
        <ele>442</ele>
        <time>2012-03-25T10:19:39Z</time>
      </trkpt>
      <trkpt lat="45.7558" lon="4.28027">
        <ele>444</ele>
        <time>2012-03-25T10:19:41Z</time>
      </trkpt>
      <trkpt lat="45.75583" lon="4.28026">
        <ele>438</ele>
        <time>2012-03-25T10:19:43Z</time>
      </trkpt>
      <trkpt lat="45.75585" lon="4.28025">
        <ele>442</ele>
        <time>2012-03-25T10:19:44Z</time>
      </trkpt>
      <trkpt lat="45.7559" lon="4.28024">
        <ele>448</ele>
        <time>2012-03-25T10:19:47Z</time>
      </trkpt>
      <trkpt lat="45.75592" lon="4.28023">
        <ele>443</ele>
        <time>2012-03-25T10:19:48Z</time>
      </trkpt>
      <trkpt lat="45.75595" lon="4.28023">
        <ele>442</ele>
        <time>2012-03-25T10:19:50Z</time>
      </trkpt>
      <trkpt lat="45.75603" lon="4.2802">
        <ele>443</ele>
        <time>2012-03-25T10:19:56Z</time>
      </trkpt>
      <trkpt lat="45.75603" lon="4.28017">
        <ele>443</ele>
        <time>2012-03-25T10:20:06Z</time>
      </trkpt>
      <trkpt lat="45.75604" lon="4.28017">
        <ele>443</ele>
        <time>2012-03-25T10:20:08Z</time>
      </trkpt>
      <trkpt lat="45.75601" lon="4.28018">
        <ele>443</ele>
        <time>2012-03-25T10:20:11Z</time>
      </trkpt>
      <trkpt lat="45.75577" lon="4.28027">
        <ele>442</ele>
        <time>2012-03-25T10:20:26Z</time>
      </trkpt>
      <trkpt lat="45.75552" lon="4.28036">
        <ele>441</ele>
        <time>2012-03-25T10:20:40Z</time>
      </trkpt>
      <trkpt lat="45.75527" lon="4.28043">
        <ele>440</ele>
        <time>2012-03-25T10:20:53Z</time>
      </trkpt>
      <trkpt lat="45.75523" lon="4.28031">
        <ele>440</ele>
        <time>2012-03-25T10:20:58Z</time>
      </trkpt>
      <trkpt lat="45.75529" lon="4.27987">
        <ele>440</ele>
        <time>2012-03-25T10:21:11Z</time>
      </trkpt>
      <trkpt lat="45.75531" lon="4.27955">
        <ele>438</ele>
        <time>2012-03-25T10:21:24Z</time>
      </trkpt>
      <trkpt lat="45.75533" lon="4.2793">
        <ele>438</ele>
        <time>2012-03-25T10:21:37Z</time>
      </trkpt>
      <trkpt lat="45.75534" lon="4.27925">
        <ele>437</ele>
        <time>2012-03-25T10:21:40Z</time>
      </trkpt>
      <trkpt lat="45.75538" lon="4.27891">
        <ele>435</ele>
        <time>2012-03-25T10:21:55Z</time>
      </trkpt>
      <trkpt lat="45.7554" lon="4.2788">
        <ele>434</ele>
        <time>2012-03-25T10:22:00Z</time>
      </trkpt>
      <trkpt lat="45.75549" lon="4.27852">
        <ele>434</ele>
        <time>2012-03-25T10:22:13Z</time>
      </trkpt>
      <trkpt lat="45.75559" lon="4.27827">
        <ele>432</ele>
        <time>2012-03-25T10:22:25Z</time>
      </trkpt>
      <trkpt lat="45.75571" lon="4.278">
        <ele>430</ele>
        <time>2012-03-25T10:22:39Z</time>
      </trkpt>
      <trkpt lat="45.75582" lon="4.27773">
        <ele>428</ele>
        <time>2012-03-25T10:22:52Z</time>
      </trkpt>
      <trkpt lat="45.75595" lon="4.27746">
        <ele>426</ele>
        <time>2012-03-25T10:23:05Z</time>
      </trkpt>
      <trkpt lat="45.75614" lon="4.27719">
        <ele>424</ele>
        <time>2012-03-25T10:23:20Z</time>
      </trkpt>
      <trkpt lat="45.75637" lon="4.27693">
        <ele>422</ele>
        <time>2012-03-25T10:23:37Z</time>
      </trkpt>
      <trkpt lat="45.75655" lon="4.27673">
        <ele>426</ele>
        <time>2012-03-25T10:23:50Z</time>
      </trkpt>
      <trkpt lat="45.75656" lon="4.27672">
        <ele>424</ele>
        <time>2012-03-25T10:23:51Z</time>
      </trkpt>
      <trkpt lat="45.75658" lon="4.27668">
        <ele>415</ele>
        <time>2012-03-25T10:23:53Z</time>
      </trkpt>
      <trkpt lat="45.75659" lon="4.27667">
        <ele>423</ele>
        <time>2012-03-25T10:23:54Z</time>
      </trkpt>
      <trkpt lat="45.75676" lon="4.2764">
        <ele>422</ele>
        <time>2012-03-25T10:24:09Z</time>
      </trkpt>
      <trkpt lat="45.75691" lon="4.27612">
        <ele>421</ele>
        <time>2012-03-25T10:24:24Z</time>
      </trkpt>
      <trkpt lat="45.75692" lon="4.2761">
        <ele>421</ele>
        <time>2012-03-25T10:24:25Z</time>
      </trkpt>
      <trkpt lat="45.75696" lon="4.27602">
        <ele>421</ele>
        <time>2012-03-25T10:24:29Z</time>
      </trkpt>
      <trkpt lat="45.75705" lon="4.27585">
        <ele>421</ele>
        <time>2012-03-25T10:24:38Z</time>
      </trkpt>
      <trkpt lat="45.75715" lon="4.27569">
        <ele>422</ele>
        <time>2012-03-25T10:24:47Z</time>
      </trkpt>
      <trkpt lat="45.75716" lon="4.27564">
        <ele>422</ele>
        <time>2012-03-25T10:24:49Z</time>
      </trkpt>
      <trkpt lat="45.75736" lon="4.27546">
        <ele>422</ele>
        <time>2012-03-25T10:25:04Z</time>
      </trkpt>
      <trkpt lat="45.75757" lon="4.27532">
        <ele>421</ele>
        <time>2012-03-25T10:25:18Z</time>
      </trkpt>
      <trkpt lat="45.75774" lon="4.27521">
        <ele>422</ele>
        <time>2012-03-25T10:25:33Z</time>
      </trkpt>
      <trkpt lat="45.75808" lon="4.27513">
        <ele>422</ele>
        <time>2012-03-25T10:25:50Z</time>
      </trkpt>
      <trkpt lat="45.75835" lon="4.27504">
        <ele>419</ele>
        <time>2012-03-25T10:26:06Z</time>
      </trkpt>
      <trkpt lat="45.75859" lon="4.27505">
        <ele>416</ele>
        <time>2012-03-25T10:26:20Z</time>
      </trkpt>
      <trkpt lat="45.75862" lon="4.27506">
        <ele>416</ele>
        <time>2012-03-25T10:26:23Z</time>
      </trkpt>
      <trkpt lat="45.75883" lon="4.27514">
        <ele>413</ele>
        <time>2012-03-25T10:26:36Z</time>
      </trkpt>
      <trkpt lat="45.75884" lon="4.27514">
        <ele>413</ele>
        <time>2012-03-25T10:26:37Z</time>
      </trkpt>
      <trkpt lat="45.75891" lon="4.27512">
        <ele>413</ele>
        <time>2012-03-25T10:26:40Z</time>
      </trkpt>
      <trkpt lat="45.75905" lon="4.27512">
        <ele>412</ele>
        <time>2012-03-25T10:26:51Z</time>
      </trkpt>
      <trkpt lat="45.7591" lon="4.27506">
        <ele>412</ele>
        <time>2012-03-25T10:26:54Z</time>
      </trkpt>
      <trkpt lat="45.75914" lon="4.27491">
        <ele>412</ele>
        <time>2012-03-25T10:27:00Z</time>
      </trkpt>
      <trkpt lat="45.75912" lon="4.2746">
        <ele>414</ele>
        <time>2012-03-25T10:27:12Z</time>
      </trkpt>
      <trkpt lat="45.75926" lon="4.27431">
        <ele>416</ele>
        <time>2012-03-25T10:27:26Z</time>
      </trkpt>
      <trkpt lat="45.75944" lon="4.27399">
        <ele>417</ele>
        <time>2012-03-25T10:27:43Z</time>
      </trkpt>
      <trkpt lat="45.75945" lon="4.27392">
        <ele>417</ele>
        <time>2012-03-25T10:27:50Z</time>
      </trkpt>
      <trkpt lat="45.75949" lon="4.27384">
        <ele>417</ele>
        <time>2012-03-25T10:28:03Z</time>
      </trkpt>
      <trkpt lat="45.75953" lon="4.2738">
        <ele>418</ele>
        <time>2012-03-25T10:28:06Z</time>
      </trkpt>
      <trkpt lat="45.75969" lon="4.2735">
        <ele>419</ele>
        <time>2012-03-25T10:28:24Z</time>
      </trkpt>
      <trkpt lat="45.75977" lon="4.27336">
        <ele>419</ele>
        <time>2012-03-25T10:28:33Z</time>
      </trkpt>
      <trkpt lat="45.75982" lon="4.27331">
        <ele>416</ele>
        <time>2012-03-25T10:28:46Z</time>
      </trkpt>
      <trkpt lat="45.75982" lon="4.27331">
        <ele>420</ele>
        <time>2012-03-25T10:28:47Z</time>
      </trkpt>
      <trkpt lat="45.75983" lon="4.27331">
        <ele>418</ele>
        <time>2012-03-25T10:29:01Z</time>
      </trkpt>
      <trkpt lat="45.75983" lon="4.27331">
        <ele>418</ele>
        <time>2012-03-25T10:29:24Z</time>
      </trkpt>
      <trkpt lat="45.75981" lon="4.27331">
        <ele>418</ele>
        <time>2012-03-25T10:29:41Z</time>
      </trkpt>
      <trkpt lat="45.75979" lon="4.27321">
        <ele>417</ele>
        <time>2012-03-25T10:29:52Z</time>
      </trkpt>
      <trkpt lat="45.75975" lon="4.27307">
        <ele>417</ele>
        <time>2012-03-25T10:29:59Z</time>
      </trkpt>
      <trkpt lat="45.75969" lon="4.27294">
        <ele>416</ele>
        <time>2012-03-25T10:30:13Z</time>
      </trkpt>
      <trkpt lat="45.75966" lon="4.27292">
        <ele>416</ele>
        <time>2012-03-25T10:30:35Z</time>
      </trkpt>
      <trkpt lat="45.75965" lon="4.27291">
        <ele>416</ele>
        <time>2012-03-25T10:30:51Z</time>
      </trkpt>
      <trkpt lat="45.75965" lon="4.27287">
        <ele>416</ele>
        <time>2012-03-25T10:31:08Z</time>
      </trkpt>
      <trkpt lat="45.75967" lon="4.27275">
        <ele>416</ele>
        <time>2012-03-25T10:31:24Z</time>
      </trkpt>
      <trkpt lat="45.75965" lon="4.27275">
        <ele>416</ele>
        <time>2012-03-25T10:31:42Z</time>
      </trkpt>
      <trkpt lat="45.75966" lon="4.27267">
        <ele>415</ele>
        <time>2012-03-25T10:31:54Z</time>
      </trkpt>
      <trkpt lat="45.75978" lon="4.27245">
        <ele>414</ele>
        <time>2012-03-25T10:32:12Z</time>
      </trkpt>
      <trkpt lat="45.75964" lon="4.27232">
        <ele>411</ele>
        <time>2012-03-25T10:32:28Z</time>
      </trkpt>
      <trkpt lat="45.75964" lon="4.27232">
        <ele>411</ele>
        <time>2012-03-25T10:32:35Z</time>
      </trkpt>
      <trkpt lat="45.75956" lon="4.2723">
        <ele>411</ele>
        <time>2012-03-25T10:32:41Z</time>
      </trkpt>
      <trkpt lat="45.75953" lon="4.27232">
        <ele>411</ele>
        <time>2012-03-25T10:32:47Z</time>
      </trkpt>
      <trkpt lat="45.7595" lon="4.27233">
        <ele>410</ele>
        <time>2012-03-25T10:32:50Z</time>
      </trkpt>
      <trkpt lat="45.75947" lon="4.27233">
        <ele>410</ele>
        <time>2012-03-25T10:32:52Z</time>
      </trkpt>
      <trkpt lat="45.75938" lon="4.27232">
        <ele>409</ele>
        <time>2012-03-25T10:33:06Z</time>
      </trkpt>
      <trkpt lat="45.75938" lon="4.27232">
        <ele>409</ele>
        <time>2012-03-25T10:33:21Z</time>
      </trkpt>
      <trkpt lat="45.75935" lon="4.27231">
        <ele>409</ele>
        <time>2012-03-25T10:33:33Z</time>
      </trkpt>
      <trkpt lat="45.75935" lon="4.27231">
        <ele>409</ele>
        <time>2012-03-25T10:33:48Z</time>
      </trkpt>
      <trkpt lat="45.75932" lon="4.27234">
        <ele>409</ele>
        <time>2012-03-25T10:34:04Z</time>
      </trkpt>
      <trkpt lat="45.75932" lon="4.27234">
        <ele>409</ele>
        <time>2012-03-25T10:34:20Z</time>
      </trkpt>
      <trkpt lat="45.75932" lon="4.27234">
        <ele>408</ele>
        <time>2012-03-25T10:34:46Z</time>
      </trkpt>
      <trkpt lat="45.75932" lon="4.27234">
        <ele>409</ele>
        <time>2012-03-25T10:35:06Z</time>
      </trkpt>
      <trkpt lat="45.75931" lon="4.27236">
        <ele>409</ele>
        <time>2012-03-25T10:35:27Z</time>
      </trkpt>
      <trkpt lat="45.75931" lon="4.27236">
        <ele>409</ele>
        <time>2012-03-25T10:35:51Z</time>
      </trkpt>
      <trkpt lat="45.75931" lon="4.27237">
        <ele>409</ele>
        <time>2012-03-25T10:36:11Z</time>
      </trkpt>
      <trkpt lat="45.75931" lon="4.27237">
        <ele>409</ele>
        <time>2012-03-25T10:36:35Z</time>
      </trkpt>
      <trkpt lat="45.7593" lon="4.27237">
        <ele>409</ele>
        <time>2012-03-25T10:37:00Z</time>
      </trkpt>
      <trkpt lat="45.7593" lon="4.27237">
        <ele>409</ele>
        <time>2012-03-25T10:37:25Z</time>
      </trkpt>
      <trkpt lat="45.75925" lon="4.2724">
        <ele>409</ele>
        <time>2012-03-25T10:37:50Z</time>
      </trkpt>
      <trkpt lat="45.75923" lon="4.27238">
        <ele>408</ele>
        <time>2012-03-25T10:37:52Z</time>
      </trkpt>
      <trkpt lat="45.75912" lon="4.2722">
        <ele>406</ele>
        <time>2012-03-25T10:38:06Z</time>
      </trkpt>
      <trkpt lat="45.75905" lon="4.27205">
        <ele>405</ele>
        <time>2012-03-25T10:38:16Z</time>
      </trkpt>
      <trkpt lat="45.75889" lon="4.27185">
        <ele>402</ele>
        <time>2012-03-25T10:38:33Z</time>
      </trkpt>
      <trkpt lat="45.75889" lon="4.27185">
        <ele>404</ele>
        <time>2012-03-25T10:38:38Z</time>
      </trkpt>
      <trkpt lat="45.75889" lon="4.27185">
        <ele>400</ele>
        <time>2012-03-25T10:38:40Z</time>
      </trkpt>
      <trkpt lat="45.75889" lon="4.27185">
        <ele>405</ele>
        <time>2012-03-25T10:38:41Z</time>
      </trkpt>
      <trkpt lat="45.75889" lon="4.27185">
        <ele>399</ele>
        <time>2012-03-25T10:38:42Z</time>
      </trkpt>
      <trkpt lat="45.75889" lon="4.27185">
        <ele>404</ele>
        <time>2012-03-25T10:38:43Z</time>
      </trkpt>
      <trkpt lat="45.75889" lon="4.27185">
        <ele>398</ele>
        <time>2012-03-25T10:38:44Z</time>
      </trkpt>
      <trkpt lat="45.75889" lon="4.27185">
        <ele>404</ele>
        <time>2012-03-25T10:38:45Z</time>
      </trkpt>
      <trkpt lat="45.75889" lon="4.27185">
        <ele>396</ele>
        <time>2012-03-25T10:38:52Z</time>
      </trkpt>
      <trkpt lat="45.75889" lon="4.27185">
        <ele>404</ele>
        <time>2012-03-25T10:38:53Z</time>
      </trkpt>
      <trkpt lat="45.75889" lon="4.27185">
        <ele>401</ele>
        <time>2012-03-25T10:38:57Z</time>
      </trkpt>
      <trkpt lat="45.75889" lon="4.27185">
        <ele>406</ele>
        <time>2012-03-25T10:38:58Z</time>
      </trkpt>
      <trkpt lat="45.75889" lon="4.27185">
        <ele>401</ele>
        <time>2012-03-25T10:39:05Z</time>
      </trkpt>
      <trkpt lat="45.75889" lon="4.27185">
        <ele>409</ele>
        <time>2012-03-25T10:39:06Z</time>
      </trkpt>
      <trkpt lat="45.75889" lon="4.27185">
        <ele>401</ele>
        <time>2012-03-25T10:39:07Z</time>
      </trkpt>
      <trkpt lat="45.75889" lon="4.27185">
        <ele>411</ele>
        <time>2012-03-25T10:39:09Z</time>
      </trkpt>
      <trkpt lat="45.75889" lon="4.27185">
        <ele>403</ele>
        <time>2012-03-25T10:39:10Z</time>
      </trkpt>
      <trkpt lat="45.75889" lon="4.27185">
        <ele>414</ele>
        <time>2012-03-25T10:39:11Z</time>
      </trkpt>
      <trkpt lat="45.75889" lon="4.27184">
        <ele>404</ele>
        <time>2012-03-25T10:39:13Z</time>
      </trkpt>
      <trkpt lat="45.75889" lon="4.27184">
        <ele>404</ele>
        <time>2012-03-25T10:39:14Z</time>
      </trkpt>
      <trkpt lat="45.75889" lon="4.27184">
        <ele>394</ele>
        <time>2012-03-25T10:39:17Z</time>
      </trkpt>
      <trkpt lat="45.75889" lon="4.27184">
        <ele>407</ele>
        <time>2012-03-25T10:39:18Z</time>
      </trkpt>
      <trkpt lat="45.75889" lon="4.27184">
        <ele>405</ele>
        <time>2012-03-25T10:39:19Z</time>
      </trkpt>
      <trkpt lat="45.75889" lon="4.27184">
        <ele>400</ele>
        <time>2012-03-25T10:39:23Z</time>
      </trkpt>
      <trkpt lat="45.75889" lon="4.27184">
        <ele>409</ele>
        <time>2012-03-25T10:39:25Z</time>
      </trkpt>
      <trkpt lat="45.75889" lon="4.27184">
        <ele>403</ele>
        <time>2012-03-25T10:39:26Z</time>
      </trkpt>
      <trkpt lat="45.75889" lon="4.27184">
        <ele>408</ele>
        <time>2012-03-25T10:39:29Z</time>
      </trkpt>
      <trkpt lat="45.75889" lon="4.27184">
        <ele>407</ele>
        <time>2012-03-25T10:39:30Z</time>
      </trkpt>
      <trkpt lat="45.75889" lon="4.27184">
        <ele>404</ele>
        <time>2012-03-25T10:39:32Z</time>
      </trkpt>
      <trkpt lat="45.75889" lon="4.27184">
        <ele>400</ele>
        <time>2012-03-25T10:39:41Z</time>
      </trkpt>
      <trkpt lat="45.75889" lon="4.27184">
        <ele>404</ele>
        <time>2012-03-25T10:39:42Z</time>
      </trkpt>
      <trkpt lat="45.75889" lon="4.27182">
        <ele>401</ele>
        <time>2012-03-25T10:39:56Z</time>
      </trkpt>
      <trkpt lat="45.75889" lon="4.27182">
        <ele>403</ele>
        <time>2012-03-25T10:39:57Z</time>
      </trkpt>
      <trkpt lat="45.75889" lon="4.27182">
        <ele>408</ele>
        <time>2012-03-25T10:39:59Z</time>
      </trkpt>
      <trkpt lat="45.75889" lon="4.27182">
        <ele>402</ele>
        <time>2012-03-25T10:40:00Z</time>
      </trkpt>
    </trkseg>
  </trk>
</gpx>